Wetterdaten: Montag, 15.08.2022
Datum Zeit Temp. Aussen Temp. o. S. Temp +5cm Feuchte Auss Luftdruck Regen Sonnenschein Regendauer Solar Windben Empfang
15.08.2022 00:00 24,1 C 22,8 C 18,9 C 70 % 1004,0 hPa 0,0 l/m 0 min 0 min 0 W/m 0,0 km/h (0 Bft) 97,83 %
15.08.2022 00:02 24,0 C 22,8 C 18,9 C 70 % 1003,9 hPa 0,0 l/m 0 min 0 min 0 W/m 0,0 km/h (0 Bft) 92,11 %
15.08.2022 00:04 24,0 C 22,2 C 18,9 C 70 % 1003,9 hPa 0,0 l/m 0 min 0 min 0 W/m 0,0 km/h (0 Bft) 97,87 %
15.08.2022 00:07 24,0 C 22,2 C 18,9 C 71 % 1003,9 hPa 0,0 l/m 0 min 0 min 0 W/m 0,0 km/h (0 Bft) 97,87 %
15.08.2022 00:08 23,9 C 22,2 C 18,9 C 71 % 1003,9 hPa 0,0 l/m 0 min 0 min 0 W/m 0,0 km/h (0 Bft) 97,92 %
15.08.2022 00:10 23,9 C 22,2 C 18,3 C 71 % 1003,9 hPa 0,0 l/m 0 min 0 min 0 W/m 0,0 km/h (0 Bft) 97,87 %
15.08.2022 00:12 23,9 C 22,2 C 18,3 C 71 % 1003,9 hPa 0,0 l/m 0 min 0 min 0 W/m 0,0 km/h (0 Bft) 97,83 %
15.08.2022 00:14 23,8 C 22,2 C 18,3 C 71 % 1003,9 hPa 0,0 l/m 0 min 0 min 0 W/m 0,0 km/h (0 Bft) 95,74 %
15.08.2022 00:16 23,8 C 22,2 C 18,3 C 72 % 1003,8 hPa 0,0 l/m 0 min 0 min 0 W/m 0,0 km/h (0 Bft) 97,87 %
15.08.2022 00:18 23,8 C 22,2 C 18,3 C 72 % 1003,8 hPa 0,0 l/m 0 min 0 min 0 W/m 0,0 km/h (0 Bft) 100,00 %
15.08.2022 00:20 23,7 C 22,2 C 18,3 C 72 % 1003,8 hPa 0,0 l/m 0 min 0 min 0 W/m 0,0 km/h (0 Bft) 100,00 %
15.08.2022 00:22 23,7 C 21,7 C 18,3 C 72 % 1003,8 hPa 0,0 l/m 0 min 0 min 0 W/m 0,0 km/h (0 Bft) 97,83 %
15.08.2022 00:24 23,6 C 21,7 C 18,3 C 72 % 1003,9 hPa 0,0 l/m 0 min 0 min 0 W/m 0,0 km/h (0 Bft) 100,00 %
15.08.2022 00:26 23,6 C 21,7 C 18,3 C 72 % 1003,8 hPa 0,0 l/m 0 min 0 min 0 W/m 0,0 km/h (0 Bft) 97,87 %
15.08.2022 00:28 23,6 C 21,7 C 18,3 C 72 % 1003,8 hPa 0,0 l/m 0 min 0 min 0 W/m 0,0 km/h (0 Bft) 100,00 %
15.08.2022 00:30 23,5 C 21,7 C 18,3 C 72 % 1003,8 hPa 0,0 l/m 0 min 0 min 0 W/m 0,0 km/h (0 Bft) 100,00 %
15.08.2022 00:32 23,5 C 21,7 C 18,3 C 73 % 1003,8 hPa 0,0 l/m 0 min 0 min 0 W/m 0,0 km/h (0 Bft) 100,00 %
15.08.2022 00:34 23,4 C 21,7 C 18,3 C 73 % 1003,8 hPa 0,0 l/m 0 min 0 min 0 W/m 0,0 km/h (0 Bft) 100,00 %
15.08.2022 00:36 23,4 C 21,7 C 18,3 C 73 % 1003,9 hPa 0,0 l/m 0 min 0 min 0 W/m 0,0 km/h (0 Bft) 100,00 %
15.08.2022 00:38 23,4 C 21,7 C 18,3 C 73 % 1003,9 hPa 0,0 l/m 0 min 0 min 0 W/m 0,0 km/h (0 Bft) 97,87 %
15.08.2022 00:40 23,3 C 21,7 C 18,3 C 72 % 1003,9 hPa 0,0 l/m 0 min 0 min 0 W/m 0,0 km/h (0 Bft) 100,00 %
15.08.2022 00:42 23,3 C 21,7 C 18,3 C 73 % 1003,8 hPa 0,0 l/m 0 min 0 min 0 W/m 0,0 km/h (0 Bft) 100,00 %
15.08.2022 00:44 23,3 C 21,7 C 18,3 C 74 % 1003,8 hPa 0,0 l/m 0 min 0 min 0 W/m 0,0 km/h (0 Bft) 100,00 %
15.08.2022 00:46 23,3 C 21,7 C 18,3 C 74 % 1003,8 hPa 0,0 l/m 0 min 0 min 0 W/m 0,0 km/h (0 Bft) 97,87 %
15.08.2022 00:48 23,3 C 21,7 C 18,3 C 74 % 1003,8 hPa 0,0 l/m 0 min 0 min 0 W/m 0,0 km/h (0 Bft) 97,83 %
15.08.2022 00:50 23,2 C 21,7 C 18,3 C 74 % 1003,8 hPa 0,0 l/m 0 min 0 min 0 W/m 0,0 km/h (0 Bft) 97,87 %
15.08.2022 00:52 23,2 C 21,7 C 17,8 C 75 % 1003,8 hPa 0,0 l/m 0 min 0 min 0 W/m 0,0 km/h (0 Bft) 97,87 %
15.08.2022 00:54 23,2 C 21,7 C 17,8 C 74 % 1003,8 hPa 0,0 l/m 0 min 0 min 0 W/m 0,0 km/h (0 Bft) 95,74 %
15.08.2022 00:56 23,2 C 21,7 C 17,8 C 74 % 1003,8 hPa 0,0 l/m 0 min 0 min 0 W/m 0,0 km/h (0 Bft) 97,87 %
15.08.2022 00:58 23,1 C 21,7 C 17,8 C 74 % 1003,7 hPa 0,0 l/m 0 min 0 min 0 W/m 0,0 km/h (0 Bft) 97,87 %
15.08.2022 01:00 23,1 C 21,7 C 17,8 C 74 % 1003,7 hPa 0,0 l/m 0 min 0 min 0 W/m 0,0 km/h (0 Bft) 97,83 %
15.08.2022 01:02 23,1 C 21,1 C 17,8 C 74 % 1003,6 hPa 0,0 l/m 0 min 0 min 0 W/m 0,0 km/h (0 Bft) 97,87 %
15.08.2022 01:04 23,0 C 21,1 C 17,8 C 74 % 1003,6 hPa 0,0 l/m 0 min 0 min 0 W/m 0,0 km/h (0 Bft) 97,87 %
15.08.2022 01:06 22,9 C 21,1 C 17,8 C 75 % 1003,5 hPa 0,0 l/m 0 min 0 min 0 W/m 0,0 km/h (0 Bft) 97,87 %
15.08.2022 01:08 22,9 C 21,1 C 17,8 C 75 % 1003,5 hPa 0,0 l/m 0 min 0 min 0 W/m 0,0 km/h (0 Bft) 97,87 %
15.08.2022 01:10 22,8 C 21,1 C 17,8 C 75 % 1003,5 hPa 0,0 l/m 0 min 0 min 0 W/m 0,0 km/h (0 Bft) 95,65 %
15.08.2022 01:12 22,8 C 21,1 C 17,8 C 75 % 1003,5 hPa 0,0 l/m 0 min 0 min 0 W/m 0,0 km/h (0 Bft) 97,87 %
15.08.2022 01:14 22,7 C 21,1 C 17,8 C 75 % 1003,5 hPa 0,0 l/m 0 min 0 min 0 W/m 0,0 km/h (0 Bft) 95,74 %
15.08.2022 01:16 22,7 C 21,1 C 17,8 C 75 % 1003,5 hPa 0,0 l/m 0 min 0 min 0 W/m 0,0 km/h (0 Bft) 97,87 %
15.08.2022 01:18 22,6 C 21,1 C 17,8 C 75 % 1003,5 hPa 0,0 l/m 0 min 0 min 0 W/m 0,0 km/h (0 Bft) 97,87 %
15.08.2022 01:20 22,6 C 21,1 C 17,8 C 75 % 1003,6 hPa 0,0 l/m 0 min 0 min 0 W/m 0,0 km/h (0 Bft) 100,00 %
15.08.2022 01:22 22,5 C 21,1 C 17,8 C 75 % 1003,5 hPa 0,0 l/m 0 min 0 min 0 W/m 0,0 km/h (0 Bft) 100,00 %
15.08.2022 01:24 22,5 C 21,1 C 17,8 C 75 % 1003,5 hPa 0,0 l/m 0 min 0 min 0 W/m 0,0 km/h (0 Bft) 97,87 %
15.08.2022 01:26 22,4 C 21,1 C 17,8 C 75 % 1003,6 hPa 0,0 l/m 0 min 0 min 0 W/m 9,7 km/h (2 Bft) 100,00 %
15.08.2022 01:28 22,4 C 21,1 C 17,8 C 74 % 1003,7 hPa 0,0 l/m 0 min 0 min 0 W/m 6,4 km/h (2 Bft) 100,00 %
15.08.2022 01:30 22,4 C 21,7 C 17,8 C 74 % 1003,7 hPa 0,0 l/m 0 min 0 min 0 W/m 0,0 km/h (0 Bft) 100,00 %
15.08.2022 01:32 22,4 C 21,7 C 17,8 C 74 % 1003,6 hPa 0,0 l/m 0 min 0 min 0 W/m 3,2 km/h (1 Bft) 97,92 %
15.08.2022 01:34 22,4 C 21,7 C 18,3 C 74 % 1003,6 hPa 0,0 l/m 0 min 0 min 0 W/m 3,2 km/h (1 Bft) 100,00 %
15.08.2022 01:36 22,4 C 21,7 C 18,3 C 73 % 1003,6 hPa 0,0 l/m 0 min 0 min 0 W/m 3,2 km/h (1 Bft) 100,00 %
15.08.2022 01:38 22,4 C 21,7 C 18,3 C 73 % 1003,7 hPa 0,0 l/m 0 min 0 min 0 W/m 3,2 km/h (1 Bft) 100,00 %
15.08.2022 01:40 22,4 C 22,2 C 18,3 C 73 % 1003,6 hPa 0,0 l/m 0 min 0 min 0 W/m 6,4 km/h (2 Bft) 97,87 %
15.08.2022 01:42 22,4 C 22,2 C 18,3 C 73 % 1003,5 hPa 0,0 l/m 0 min 0 min 0 W/m 3,2 km/h (1 Bft) 97,87 %
15.08.2022 01:44 22,4 C 22,2 C 18,3 C 73 % 1003,5 hPa 0,0 l/m 0 min 0 min 0 W/m 3,2 km/h (1 Bft) 97,87 %
15.08.2022 01:46 22,5 C 22,2 C 18,3 C 72 % 1003,4 hPa 0,0 l/m 0 min 0 min 0 W/m 3,2 km/h (1 Bft) 95,74 %
15.08.2022 01:48 22,5 C 22,2 C 18,3 C 72 % 1003,4 hPa 0,0 l/m 0 min 0 min 0 W/m 0,0 km/h (0 Bft) 97,83 %
15.08.2022 01:50 22,5 C 22,2 C 18,3 C 72 % 1003,4 hPa 0,0 l/m 0 min 0 min 0 W/m 0,0 km/h (0 Bft) 97,87 %
15.08.2022 01:52 22,5 C 22,2 C 18,3 C 71 % 1003,4 hPa 0,0 l/m 0 min 0 min 0 W/m 0,0 km/h (0 Bft) 97,87 %
15.08.2022 01:54 22,6 C 22,2 C 18,9 C 71 % 1003,4 hPa 0,0 l/m 0 min 0 min 0 W/m 0,0 km/h (0 Bft) 97,87 %
15.08.2022 01:56 22,6 C 22,2 C 18,9 C 71 % 1003,4 hPa 0,0 l/m 0 min 0 min 0 W/m 0,0 km/h (0 Bft) 97,87 %
15.08.2022 01:58 22,6 C 22,2 C 18,9 C 71 % 1003,4 hPa 0,0 l/m 0 min 0 min 0 W/m 0,0 km/h (0 Bft) 97,87 %
15.08.2022 02:00 22,6 C 22,2 C 18,9 C 71 % 1003,4 hPa 0,0 l/m 0 min 0 min 0 W/m 6,4 km/h (2 Bft) 97,83 %
15.08.2022 02:02 22,7 C 22,2 C 18,9 C 71 % 1003,4 hPa 0,0 l/m 0 min 0 min 0 W/m 3,2 km/h (1 Bft) 95,74 %
15.08.2022 02:04 22,7 C 22,2 C 18,9 C 70 % 1003,4 hPa 0,0 l/m 0 min 0 min 0 W/m 6,4 km/h (2 Bft) 97,87 %
15.08.2022 02:06 22,7 C 22,2 C 18,9 C 70 % 1003,4 hPa 0,0 l/m 0 min 0 min 0 W/m 3,2 km/h (1 Bft) 97,87 %
15.08.2022 02:08 22,7 C 22,2 C 18,9 C 70 % 1003,3 hPa 0,0 l/m 0 min 0 min 0 W/m 3,2 km/h (1 Bft) 95,74 %
15.08.2022 02:10 22,7 C 22,2 C 18,9 C 70 % 1003,3 hPa 0,0 l/m 0 min 0 min 0 W/m 3,2 km/h (1 Bft) 95,74 %
15.08.2022 02:12 22,7 C 22,2 C 18,3 C 69 % 1003,3 hPa 0,0 l/m 0 min 0 min 0 W/m 3,2 km/h (1 Bft) 97,83 %
15.08.2022 02:14 22,8 C 22,2 C 18,9 C 69 % 1003,3 hPa 0,0 l/m 0 min 0 min 0 W/m 3,2 km/h (1 Bft) 97,87 %
15.08.2022 02:16 22,8 C 22,2 C 18,3 C 69 % 1003,4 hPa 0,0 l/m 0 min 0 min 0 W/m 3,2 km/h (1 Bft) 93,62 %
15.08.2022 02:18 22,8 C 22,2 C 18,3 C 68 % 1003,4 hPa 0,0 l/m 0 min 0 min 0 W/m 3,2 km/h (1 Bft) 95,74 %
15.08.2022 02:20 22,8 C 22,2 C 18,3 C 68 % 1003,4 hPa 0,0 l/m 0 min 0 min 0 W/m 3,2 km/h (1 Bft) 95,74 %
15.08.2022 02:22 22,8 C 22,2 C 18,3 C 68 % 1003,4 hPa 0,0 l/m 0 min 0 min 0 W/m 3,2 km/h (1 Bft) 95,65 %
15.08.2022 02:24 22,8 C 22,2 C 18,3 C 67 % 1003,4 hPa 0,0 l/m 0 min 0 min 0 W/m 3,2 km/h (1 Bft) 95,74 %
15.08.2022 02:26 22,8 C 22,2 C 18,3 C 67 % 1003,4 hPa 0,0 l/m 0 min 0 min 0 W/m 6,4 km/h (2 Bft) 95,74 %
15.08.2022 02:28 22,8 C 22,2 C 18,3 C 67 % 1003,4 hPa 0,0 l/m 0 min 0 min 0 W/m 6,4 km/h (2 Bft) 97,87 %
15.08.2022 02:30 22,8 C 22,2 C 18,3 C 67 % 1003,5 hPa 0,0 l/m 0 min 0 min 0 W/m 3,2 km/h (1 Bft) 95,74 %
15.08.2022 02:32 22,8 C 22,2 C 18,3 C 67 % 1003,5 hPa 0,0 l/m 0 min 0 min 0 W/m 6,4 km/h (2 Bft) 97,87 %
15.08.2022 02:34 22,8 C 22,2 C 18,3 C 67 % 1003,5 hPa 0,0 l/m 0 min 0 min 0 W/m 6,4 km/h (2 Bft) 95,65 %
15.08.2022 02:36 22,8 C 21,7 C 18,3 C 67 % 1003,6 hPa 0,0 l/m 0 min 0 min 0 W/m 3,2 km/h (1 Bft) 95,74 %
15.08.2022 02:38 22,8 C 21,7 C 18,3 C 67 % 1003,6 hPa 0,0 l/m 0 min 0 min 0 W/m 3,2 km/h (1 Bft) 97,87 %
15.08.2022 02:40 22,8 C 21,7 C 18,3 C 67 % 1003,6 hPa 0,0 l/m 0 min 0 min 0 W/m 0,0 km/h (0 Bft) 95,74 %
15.08.2022 02:42 22,8 C 21,7 C 18,3 C 67 % 1003,5 hPa 0,0 l/m 0 min 0 min 0 W/m 6,4 km/h (2 Bft) 95,74 %
15.08.2022 02:44 22,8 C 21,7 C 18,3 C 67 % 1003,6 hPa 0,0 l/m 0 min 0 min 0 W/m 3,2 km/h (1 Bft) 93,62 %
15.08.2022 02:46 22,8 C 21,7 C 18,3 C 67 % 1003,6 hPa 0,0 l/m 0 min 0 min 0 W/m 3,2 km/h (1 Bft) 95,65 %
15.08.2022 02:48 22,7 C 21,1 C 18,3 C 67 % 1003,6 hPa 0,0 l/m 0 min 0 min 0 W/m 3,2 km/h (1 Bft) 95,74 %
15.08.2022 02:50 22,7 C 21,1 C 17,8 C 67 % 1003,6 hPa 0,0 l/m 0 min 0 min 0 W/m 3,2 km/h (1 Bft) 93,62 %
15.08.2022 02:52 22,7 C 21,1 C 17,8 C 67 % 1003,6 hPa 0,0 l/m 0 min 0 min 0 W/m 3,2 km/h (1 Bft) 95,74 %
15.08.2022 02:54 22,7 C 21,1 C 17,8 C 67 % 1003,6 hPa 0,0 l/m 0 min 0 min 0 W/m 0,0 km/h (0 Bft) 93,62 %
15.08.2022 02:56 22,6 C 21,1 C 17,8 C 67 % 1003,5 hPa 0,0 l/m 0 min 0 min 0 W/m 3,2 km/h (1 Bft) 93,62 %
15.08.2022 02:58 22,6 C 21,1 C 17,8 C 66 % 1003,6 hPa 0,0 l/m 0 min 0 min 0 W/m 3,2 km/h (1 Bft) 95,65 %
15.08.2022 03:00 22,6 C 21,1 C 17,8 C 66 % 1003,6 hPa 0,0 l/m 0 min 0 min 0 W/m 0,0 km/h (0 Bft) 95,74 %
15.08.2022 03:02 22,6 C 21,1 C 17,8 C 66 % 1003,6 hPa 0,0 l/m 0 min 0 min 0 W/m 3,2 km/h (1 Bft) 95,74 %
15.08.2022 03:04 22,5 C 21,1 C 17,8 C 66 % 1003,6 hPa 0,0 l/m 0 min 0 min 0 W/m 0,0 km/h (0 Bft) 97,92 %
15.08.2022 03:06 22,5 C 21,1 C 17,8 C 66 % 1003,6 hPa 0,0 l/m 0 min 0 min 0 W/m 3,2 km/h (1 Bft) 95,74 %
15.08.2022 03:08 22,4 C 21,1 C 17,8 C 66 % 1003,6 hPa 0,0 l/m 0 min 0 min 0 W/m 3,2 km/h (1 Bft) 95,74 %
15.08.2022 03:10 22,4 C 21,1 C 17,8 C 65 % 1003,6 hPa 0,0 l/m 0 min 0 min 0 W/m 3,2 km/h (1 Bft) 100,00 %
15.08.2022 03:12 22,4 C 21,1 C 17,8 C 65 % 1003,6 hPa 0,0 l/m 0 min 0 min 0 W/m 3,2 km/h (1 Bft) 97,87 %
15.08.2022 03:14 22,4 C 21,1 C 17,8 C 65 % 1003,6 hPa 0,0 l/m 0 min 0 min 0 W/m 3,2 km/h (1 Bft) 100,00 %
15.08.2022 03:16 22,4 C 21,1 C 17,8 C 65 % 1003,5 hPa 0,0 l/m 0 min 0 min 0 W/m 6,4 km/h (2 Bft) 97,87 %
15.08.2022 03:18 22,4 C 21,7 C 17,8 C 65 % 1003,5 hPa 0,0 l/m 0 min 0 min 0 W/m 3,2 km/h (1 Bft) 100,00 %
15.08.2022 03:20 22,4 C 21,7 C 17,8 C 64 % 1003,5 hPa 0,0 l/m 0 min 0 min 0 W/m 6,4 km/h (2 Bft) 97,87 %
15.08.2022 03:22 22,4 C 21,7 C 17,8 C 64 % 1003,5 hPa 0,0 l/m 0 min 0 min 0 W/m 6,4 km/h (2 Bft) 100,00 %
15.08.2022 03:24 22,4 C 21,7 C 18,3 C 64 % 1003,5 hPa 0,0 l/m 0 min 0 min 0 W/m 3,2 km/h (1 Bft) 100,00 %
15.08.2022 03:26 22,4 C 21,7 C 17,8 C 64 % 1003,5 hPa 0,0 l/m 0 min 0 min 0 W/m 6,4 km/h (2 Bft) 100,00 %
15.08.2022 03:28 22,4 C 21,7 C 17,8 C 63 % 1003,5 hPa 0,0 l/m 0 min 0 min 0 W/m 3,2 km/h (1 Bft) 100,00 %
15.08.2022 03:30 22,4 C 21,7 C 18,3 C 63 % 1003,6 hPa 0,0 l/m 0 min 0 min 0 W/m 6,4 km/h (2 Bft) 100,00 %
15.08.2022 03:32 22,4 C 21,7 C 18,3 C 63 % 1003,6 hPa 0,0 l/m 0 min 0 min 0 W/m 6,4 km/h (2 Bft) 100,00 %
15.08.2022 03:34 22,4 C 21,7 C 18,3 C 63 % 1003,5 hPa 0,0 l/m 0 min 0 min 0 W/m 6,4 km/h (2 Bft) 100,00 %
15.08.2022 03:36 22,5 C 21,7 C 18,3 C 63 % 1003,6 hPa 0,0 l/m 0 min 0 min 0 W/m 9,7 km/h (2 Bft) 100,00 %
15.08.2022 03:38 22,5 C 21,7 C 18,3 C 63 % 1003,6 hPa 0,0 l/m 0 min 0 min 0 W/m 3,2 km/h (1 Bft) 97,87 %
15.08.2022 03:40 22,5 C 21,7 C 18,3 C 62 % 1003,6 hPa 0,0 l/m 0 min 0 min 0 W/m 3,2 km/h (1 Bft) 100,00 %
15.08.2022 03:42 22,6 C 21,7 C 18,3 C 64 % 1003,6 hPa 0,0 l/m 0 min 0 min 0 W/m 9,7 km/h (2 Bft) 100,00 %
15.08.2022 03:44 22,6 C 21,7 C 18,3 C 63 % 1003,6 hPa 0,0 l/m 0 min 0 min 0 W/m 3,2 km/h (1 Bft) 100,00 %
15.08.2022 03:46 22,6 C 21,7 C 18,3 C 63 % 1003,5 hPa 0,0 l/m 0 min 0 min 0 W/m 3,2 km/h (1 Bft) 100,00 %
15.08.2022 03:48 22,6 C 21,7 C 18,3 C 63 % 1003,6 hPa 0,0 l/m 0 min 0 min 0 W/m 6,4 km/h (2 Bft) 100,00 %
15.08.2022 03:50 22,6 C 21,7 C 18,3 C 63 % 1003,5 hPa 0,0 l/m 0 min 0 min 0 W/m 9,7 km/h (2 Bft) 100,00 %
15.08.2022 03:52 22,6 C 22,2 C 18,3 C 63 % 1003,6 hPa 0,0 l/m 0 min 0 min 0 W/m 3,2 km/h (1 Bft) 100,00 %
15.08.2022 03:54 22,7 C 22,2 C 18,3 C 63 % 1003,6 hPa 0,0 l/m 0 min 0 min 0 W/m 6,4 km/h (2 Bft) 100,00 %
15.08.2022 03:56 22,7 C 22,2 C 18,3 C 62 % 1003,6 hPa 0,0 l/m 0 min 0 min 0 W/m 3,2 km/h (1 Bft) 100,00 %
15.08.2022 03:58 22,7 C 22,2 C 18,3 C 62 % 1003,6 hPa 0,0 l/m 0 min 0 min 0 W/m 3,2 km/h (1 Bft) 100,00 %
15.08.2022 04:00 22,7 C 21,7 C 18,3 C 63 % 1003,6 hPa 0,0 l/m 0 min 0 min 0 W/m 6,4 km/h (2 Bft) 100,00 %
15.08.2022 04:05 22,8 C 21,7 C 18,3 C 63 % 1003,5 hPa 0,0 l/m 0 min 0 min 0 W/m 3,2 km/h (1 Bft) 100,00 %
15.08.2022 04:06 22,8 C 21,7 C 18,3 C 63 % 1003,6 hPa 0,0 l/m 0 min 0 min 0 W/m 0,0 km/h (0 Bft) 95,83 %
15.08.2022 04:08 22,8 C 21,7 C 18,3 C 63 % 1003,6 hPa 0,0 l/m 0 min 0 min 0 W/m 12,9 km/h (3 Bft) 100,00 %
15.08.2022 04:10 22,8 C 22,2 C 18,3 C 63 % 1003,6 hPa 0,0 l/m 0 min 0 min 0 W/m 9,7 km/h (2 Bft) 100,00 %
15.08.2022 04:12 22,8 C 22,2 C 18,3 C 63 % 1003,6 hPa 0,0 l/m 0 min 0 min 0 W/m 12,9 km/h (3 Bft) 100,00 %
15.08.2022 04:14 22,8 C 22,2 C 18,3 C 63 % 1003,6 hPa 0,0 l/m 0 min 0 min 0 W/m 3,2 km/h (1 Bft) 100,00 %
15.08.2022 04:16 22,8 C 22,2 C 18,3 C 63 % 1003,7 hPa 0,0 l/m 0 min 0 min 0 W/m 6,4 km/h (2 Bft) 97,87 %
15.08.2022 04:18 22,8 C 21,7 C 18,3 C 63 % 1003,6 hPa 0,0 l/m 0 min 0 min 0 W/m 3,2 km/h (1 Bft) 95,74 %
15.08.2022 04:20 22,8 C 21,7 C 18,3 C 63 % 1003,6 hPa 0,0 l/m 0 min 0 min 0 W/m 3,2 km/h (1 Bft) 97,87 %
15.08.2022 04:22 22,8 C 21,7 C 18,3 C 63 % 1003,7 hPa 0,0 l/m 0 min 0 min 0 W/m 3,2 km/h (1 Bft) 97,83 %
15.08.2022 04:24 22,8 C 21,7 C 18,3 C 63 % 1003,7 hPa 0,0 l/m 0 min 0 min 0 W/m 9,7 km/h (2 Bft) 97,87 %
15.08.2022 04:26 22,8 C 21,7 C 18,3 C 63 % 1003,7 hPa 0,0 l/m 0 min 0 min 0 W/m 9,7 km/h (2 Bft) 100,00 %
15.08.2022 04:28 22,8 C 21,7 C 18,3 C 63 % 1003,7 hPa 0,0 l/m 0 min 0 min 0 W/m 3,2 km/h (1 Bft) 97,87 %
15.08.2022 04:30 22,8 C 21,7 C 18,3 C 63 % 1003,7 hPa 0,0 l/m 0 min 0 min 0 W/m 9,7 km/h (2 Bft) 100,00 %
15.08.2022 04:32 22,8 C 21,7 C 18,3 C 63 % 1003,7 hPa 0,0 l/m 0 min 0 min 0 W/m 3,2 km/h (1 Bft) 97,83 %
15.08.2022 04:34 22,8 C 21,7 C 18,3 C 64 % 1003,7 hPa 0,0 l/m 0 min 0 min 0 W/m 3,2 km/h (1 Bft) 95,74 %
15.08.2022 04:36 22,8 C 21,7 C 17,8 C 64 % 1003,6 hPa 0,0 l/m 0 min 0 min 0 W/m 6,4 km/h (2 Bft) 93,62 %
15.08.2022 04:38 22,8 C 21,7 C 17,8 C 64 % 1003,6 hPa 0,0 l/m 0 min 0 min 0 W/m 3,2 km/h (1 Bft) 95,74 %
15.08.2022 04:40 22,8 C 21,7 C 17,8 C 64 % 1003,6 hPa 0,0 l/m 0 min 0 min 0 W/m 0,0 km/h (0 Bft) 95,74 %
15.08.2022 04:42 22,7 C 21,1 C 17,8 C 64 % 1003,7 hPa 0,0 l/m 0 min 0 min 0 W/m 3,2 km/h (1 Bft) 95,74 %
15.08.2022 04:44 22,7 C 21,1 C 17,8 C 65 % 1003,7 hPa 0,0 l/m 0 min 0 min 0 W/m 3,2 km/h (1 Bft) 93,62 %
15.08.2022 04:46 22,7 C 21,1 C 17,8 C 65 % 1003,8 hPa 0,0 l/m 0 min 0 min 0 W/m 6,4 km/h (2 Bft) 95,65 %
15.08.2022 04:48 22,7 C 21,1 C 17,8 C 65 % 1003,7 hPa 0,0 l/m 0 min 0 min 0 W/m 0,0 km/h (0 Bft) 95,74 %
15.08.2022 04:50 22,6 C 21,1 C 17,8 C 65 % 1003,7 hPa 0,0 l/m 0 min 0 min 0 W/m 6,4 km/h (2 Bft) 95,74 %
15.08.2022 04:52 22,6 C 21,1 C 17,8 C 65 % 1003,7 hPa 0,0 l/m 0 min 0 min 0 W/m 3,2 km/h (1 Bft) 93,62 %
15.08.2022 04:54 22,6 C 21,1 C 17,8 C 65 % 1003,7 hPa 0,0 l/m 0 min 0 min 0 W/m 3,2 km/h (1 Bft) 95,74 %
15.08.2022 04:56 22,6 C 21,1 C 17,8 C 66 % 1003,7 hPa 0,0 l/m 0 min 0 min 0 W/m 3,2 km/h (1 Bft) 95,65 %
15.08.2022 04:58 22,6 C 21,1 C 17,8 C 66 % 1003,6 hPa 0,0 l/m 0 min 0 min 0 W/m 6,4 km/h (2 Bft) 91,49 %
15.08.2022 05:00 22,5 C 21,1 C 17,8 C 65 % 1003,6 hPa 0,0 l/m 0 min 0 min 0 W/m 9,7 km/h (2 Bft) 93,62 %
15.08.2022 05:02 22,5 C 21,7 C 17,8 C 65 % 1003,6 hPa 0,0 l/m 0 min 0 min 0 W/m 9,7 km/h (2 Bft) 97,87 %
15.08.2022 05:04 22,5 C 21,7 C 17,8 C 65 % 1003,6 hPa 0,0 l/m 0 min 0 min 0 W/m 3,2 km/h (1 Bft) 93,62 %
15.08.2022 05:06 22,5 C 21,7 C 17,8 C 65 % 1003,6 hPa 0,0 l/m 0 min 0 min 0 W/m 3,2 km/h (1 Bft) 93,62 %
15.08.2022 05:08 22,5 C 21,7 C 17,8 C 65 % 1003,6 hPa 0,0 l/m 0 min 0 min 0 W/m 6,4 km/h (2 Bft) 95,74 %
15.08.2022 05:10 22,5 C 21,7 C 17,8 C 65 % 1003,5 hPa 0,0 l/m 0 min 0 min 0 W/m 3,2 km/h (1 Bft) 93,48 %
15.08.2022 05:12 22,5 C 21,7 C 17,8 C 65 % 1003,6 hPa 0,0 l/m 0 min 0 min 0 W/m 6,4 km/h (2 Bft) 95,74 %
15.08.2022 05:14 22,5 C 21,7 C 17,8 C 65 % 1003,6 hPa 0,0 l/m 0 min 0 min 0 W/m 6,4 km/h (2 Bft) 95,74 %
15.08.2022 05:16 22,5 C 21,7 C 17,8 C 65 % 1003,6 hPa 0,0 l/m 0 min 0 min 0 W/m 3,2 km/h (1 Bft) 93,62 %
15.08.2022 05:18 22,5 C 21,7 C 17,8 C 65 % 1003,5 hPa 0,0 l/m 0 min 0 min 0 W/m 6,4 km/h (2 Bft) 95,74 %
15.08.2022 05:20 22,5 C 21,7 C 17,8 C 65 % 1003,5 hPa 0,0 l/m 0 min 0 min 0 W/m 3,2 km/h (1 Bft) 93,48 %
15.08.2022 05:22 22,5 C 21,7 C 17,8 C 65 % 1003,5 hPa 0,0 l/m 0 min 0 min 0 W/m 6,4 km/h (2 Bft) 95,74 %
15.08.2022 05:24 22,5 C 21,1 C 17,8 C 65 % 1003,6 hPa 0,0 l/m 0 min 0 min 0 W/m 6,4 km/h (2 Bft) 97,87 %
15.08.2022 05:26 22,5 C 21,1 C 17,8 C 65 % 1003,6 hPa 0,0 l/m 0 min 0 min 0 W/m 3,2 km/h (1 Bft) 97,87 %
15.08.2022 05:28 22,4 C 21,1 C 17,8 C 66 % 1003,6 hPa 0,0 l/m 0 min 0 min 0 W/m 3,2 km/h (1 Bft) 95,74 %
15.08.2022 05:30 22,4 C 21,1 C 17,8 C 66 % 1003,6 hPa 0,0 l/m 0 min 0 min 0 W/m 3,2 km/h (1 Bft) 97,87 %
15.08.2022 05:32 22,4 C 21,1 C 17,8 C 65 % 1003,5 hPa 0,0 l/m 0 min 0 min 0 W/m 6,4 km/h (2 Bft) 97,83 %
15.08.2022 05:34 22,4 C 21,1 C 17,8 C 65 % 1003,6 hPa 0,0 l/m 0 min 0 min 0 W/m 6,4 km/h (2 Bft) 95,74 %
15.08.2022 05:36 22,3 C 21,1 C 17,8 C 66 % 1003,6 hPa 0,0 l/m 0 min 0 min 0 W/m 3,2 km/h (1 Bft) 97,87 %
15.08.2022 05:38 22,3 C 21,1 C 17,8 C 66 % 1003,6 hPa 0,0 l/m 0 min 0 min 0 W/m 0,0 km/h (0 Bft) 95,74 %
15.08.2022 05:40 22,3 C 21,1 C 17,8 C 66 % 1003,6 hPa 0,0 l/m 0 min 0 min 0 W/m 3,2 km/h (1 Bft) 97,87 %
15.08.2022 05:42 22,3 C 21,1 C 17,8 C 66 % 1003,6 hPa 0,0 l/m 0 min 0 min 0 W/m 6,4 km/h (2 Bft) 97,87 %
15.08.2022 05:44 22,3 C 21,1 C 17,8 C 66 % 1003,5 hPa 0,0 l/m 0 min 0 min 0 W/m 9,7 km/h (2 Bft) 93,48 %
15.08.2022 05:46 22,3 C 21,1 C 17,8 C 66 % 1003,6 hPa 0,0 l/m 0 min 0 min 0 W/m 6,4 km/h (2 Bft) 100,00 %
15.08.2022 05:48 22,2 C 21,1 C 17,8 C 66 % 1003,6 hPa 0,0 l/m 0 min 0 min 0 W/m 3,2 km/h (1 Bft) 100,00 %
15.08.2022 05:50 22,2 C 21,1 C 17,8 C 66 % 1003,5 hPa 0,0 l/m 0 min 0 min 0 W/m 9,7 km/h (2 Bft) 100,00 %
15.08.2022 05:52 22,2 C 21,1 C 17,8 C 66 % 1003,4 hPa 0,0 l/m 0 min 0 min 0 W/m 6,4 km/h (2 Bft) 100,00 %
15.08.2022 05:54 22,2 C 21,1 C 17,8 C 66 % 1003,5 hPa 0,0 l/m 0 min 0 min 0 W/m 3,2 km/h (1 Bft) 100,00 %
15.08.2022 05:56 22,2 C 21,1 C 17,8 C 66 % 1003,5 hPa 0,0 l/m 0 min 0 min 0 W/m 6,4 km/h (2 Bft) 100,00 %
15.08.2022 05:58 22,2 C 21,1 C 17,8 C 66 % 1003,6 hPa 0,0 l/m 0 min 0 min 0 W/m 3,2 km/h (1 Bft) 100,00 %
15.08.2022 06:00 22,2 C 21,1 C 17,8 C 67 % 1003,6 hPa 0,0 l/m 0 min 0 min 0 W/m 9,7 km/h (2 Bft) 100,00 %
15.08.2022 06:02 22,1 C 21,1 C 17,8 C 67 % 1003,6 hPa 0,0 l/m 0 min 0 min 0 W/m 12,9 km/h (3 Bft) 100,00 %
15.08.2022 06:04 22,2 C 21,1 C 17,8 C 67 % 1003,5 hPa 0,0 l/m 0 min 0 min 0 W/m 9,7 km/h (2 Bft) 100,00 %
15.08.2022 06:07 22,1 C 21,1 C 17,8 C 67 % 1003,5 hPa 0,0 l/m 0 min 0 min 0 W/m 9,7 km/h (2 Bft) 100,00 %
15.08.2022 06:08 22,1 C 21,1 C 17,8 C 67 % 1003,5 hPa 0,0 l/m 0 min 0 min 0 W/m 9,7 km/h (2 Bft) 100,00 %
15.08.2022 06:10 22,1 C 21,1 C 17,8 C 67 % 1003,6 hPa 0,0 l/m 0 min 0 min 0 W/m 16,1 km/h (3 Bft) 100,00 %
15.08.2022 06:12 22,1 C 21,1 C 17,8 C 67 % 1003,5 hPa 0,0 l/m 0 min 0 min 0 W/m 3,2 km/h (1 Bft) 100,00 %
15.08.2022 06:14 22,1 C 21,1 C 17,8 C 67 % 1003,6 hPa 0,0 l/m 0 min 0 min 0 W/m 9,7 km/h (2 Bft) 100,00 %
15.08.2022 06:16 22,1 C 21,1 C 17,8 C 67 % 1003,6 hPa 0,0 l/m 0 min 0 min 0 W/m 9,7 km/h (2 Bft) 100,00 %
15.08.2022 06:18 22,2 C 21,1 C 17,8 C 67 % 1003,6 hPa 0,0 l/m 0 min 0 min 0 W/m 9,7 km/h (2 Bft) 100,00 %
15.08.2022 06:20 22,2 C 21,1 C 17,8 C 67 % 1003,6 hPa 0,0 l/m 0 min 0 min 0 W/m 9,7 km/h (2 Bft) 97,83 %
15.08.2022 06:22 22,2 C 21,1 C 17,8 C 67 % 1003,6 hPa 0,0 l/m 0 min 0 min 0 W/m 9,7 km/h (2 Bft) 100,00 %
15.08.2022 06:24 22,2 C 21,1 C 17,8 C 67 % 1003,6 hPa 0,0 l/m 0 min 0 min 0 W/m 6,4 km/h (2 Bft) 100,00 %
15.08.2022 06:26 22,2 C 21,1 C 17,8 C 67 % 1003,6 hPa 0,0 l/m 0 min 0 min 0 W/m 6,4 km/h (2 Bft) 100,00 %
15.08.2022 06:28 22,2 C 21,1 C 17,8 C 67 % 1003,5 hPa 0,0 l/m 0 min 0 min 1 W/m 3,2 km/h (1 Bft) 100,00 %
15.08.2022 06:30 22,2 C 21,1 C 17,8 C 67 % 1003,5 hPa 0,0 l/m 0 min 0 min 5 W/m 3,2 km/h (1 Bft) 100,00 %
15.08.2022 06:32 22,2 C 21,1 C 17,8 C 67 % 1003,5 hPa 0,0 l/m 0 min 0 min 5 W/m 3,2 km/h (1 Bft) 97,83 %
15.08.2022 06:34 22,2 C 21,1 C 17,8 C 67 % 1003,6 hPa 0,0 l/m 0 min 0 min 5 W/m 6,4 km/h (2 Bft) 97,87 %
15.08.2022 06:36 22,2 C 21,1 C 17,8 C 67 % 1003,6 hPa 0,0 l/m 0 min 0 min 5 W/m 9,7 km/h (2 Bft) 97,87 %
15.08.2022 06:38 22,2 C 21,1 C 17,8 C 67 % 1003,6 hPa 0,0 l/m 0 min 0 min 6 W/m 3,2 km/h (1 Bft) 95,74 %
15.08.2022 06:40 22,2 C 21,1 C 17,8 C 67 % 1003,6 hPa 0,0 l/m 0 min 0 min 8 W/m 3,2 km/h (1 Bft) 95,74 %
15.08.2022 06:42 22,2 C 21,1 C 17,8 C 67 % 1003,7 hPa 0,0 l/m 0 min 0 min 9 W/m 6,4 km/h (2 Bft) 95,74 %
15.08.2022 06:44 22,2 C 21,1 C 17,8 C 67 % 1003,7 hPa 0,0 l/m 0 min 0 min 11 W/m 6,4 km/h (2 Bft) 97,87 %
15.08.2022 06:46 22,2 C 21,1 C 17,8 C 67 % 1003,7 hPa 0,0 l/m 0 min 0 min 11 W/m 6,4 km/h (2 Bft) 97,83 %
15.08.2022 06:48 22,2 C 21,1 C 17,8 C 67 % 1003,7 hPa 0,0 l/m 0 min 0 min 12 W/m 12,9 km/h (3 Bft) 95,74 %
15.08.2022 06:50 22,2 C 21,1 C 17,8 C 67 % 1003,8 hPa 0,0 l/m 0 min 0 min 13 W/m 19,3 km/h (3 Bft) 97,87 %
15.08.2022 06:52 22,3 C 21,1 C 17,8 C 67 % 1003,9 hPa 0,0 l/m 0 min 0 min 15 W/m 12,9 km/h (3 Bft) 97,87 %
15.08.2022 06:54 22,3 C 21,7 C 17,8 C 67 % 1003,8 hPa 0,0 l/m 0 min 0 min 17 W/m 6,4 km/h (2 Bft) 97,87 %
15.08.2022 06:56 22,3 C 21,7 C 17,8 C 67 % 1003,8 hPa 0,0 l/m 0 min 0 min 18 W/m 6,4 km/h (2 Bft) 97,87 %
15.08.2022 06:58 22,3 C 21,7 C 17,8 C 67 % 1003,8 hPa 0,0 l/m 0 min 0 min 19 W/m 19,3 km/h (3 Bft) 97,83 %
15.08.2022 07:00 22,3 C 21,7 C 18,3 C 67 % 1003,8 hPa 0,0 l/m 0 min 0 min 19 W/m 6,4 km/h (2 Bft) 97,87 %
15.08.2022 07:02 22,3 C 21,7 C 18,3 C 67 % 1003,8 hPa 0,0 l/m 0 min 0 min 19 W/m 6,4 km/h (2 Bft) 97,87 %
15.08.2022 07:04 22,3 C 21,7 C 18,3 C 67 % 1003,8 hPa 0,0 l/m 0 min 0 min 19 W/m 12,9 km/h (3 Bft) 100,00 %
15.08.2022 07:06 22,4 C 21,7 C 18,3 C 67 % 1003,8 hPa 0,0 l/m 0 min 0 min 18 W/m 16,1 km/h (3 Bft) 100,00 %
15.08.2022 07:08 22,4 C 21,7 C 18,3 C 67 % 1003,8 hPa 0,0 l/m 0 min 0 min 18 W/m 6,4 km/h (2 Bft) 100,00 %
15.08.2022 07:10 22,4 C 21,7 C 18,3 C 67 % 1003,7 hPa 0,0 l/m 0 min 0 min 19 W/m 6,4 km/h (2 Bft) 97,87 %
15.08.2022 07:12 22,5 C 21,7 C 18,3 C 67 % 1003,8 hPa 0,0 l/m 0 min 0 min 19 W/m 3,2 km/h (1 Bft) 100,00 %
15.08.2022 07:14 22,5 C 21,7 C 18,3 C 67 % 1003,8 hPa 0,0 l/m 0 min 0 min 21 W/m 6,4 km/h (2 Bft) 97,87 %
15.08.2022 07:16 22,6 C 21,7 C 18,3 C 67 % 1003,8 hPa 0,0 l/m 0 min 0 min 21 W/m 6,4 km/h (2 Bft) 100,00 %
15.08.2022 07:18 22,6 C 21,7 C 18,3 C 67 % 1003,7 hPa 0,0 l/m 0 min 0 min 21 W/m 3,2 km/h (1 Bft) 100,00 %
15.08.2022 07:20 22,6 C 21,7 C 18,3 C 67 % 1003,8 hPa 0,0 l/m 0 min 0 min 22 W/m 6,4 km/h (2 Bft) 100,00 %
15.08.2022 07:22 22,6 C 21,7 C 18,3 C 67 % 1003,7 hPa 0,0 l/m 0 min 0 min 22 W/m 9,7 km/h (2 Bft) 100,00 %
15.08.2022 07:24 22,6 C 21,7 C 18,3 C 67 % 1003,8 hPa 0,0 l/m 0 min 0 min 21 W/m 12,9 km/h (3 Bft) 97,87 %
15.08.2022 07:26 22,6 C 21,7 C 18,3 C 67 % 1003,7 hPa 0,0 l/m 0 min 0 min 20 W/m 6,4 km/h (2 Bft) 100,00 %
15.08.2022 07:28 22,6 C 21,7 C 18,3 C 67 % 1003,7 hPa 0,0 l/m 0 min 0 min 19 W/m 9,7 km/h (2 Bft) 100,00 %
15.08.2022 07:30 22,6 C 21,7 C 18,3 C 67 % 1003,8 hPa 0,0 l/m 0 min 0 min 19 W/m 6,4 km/h (2 Bft) 97,87 %
15.08.2022 07:32 22,6 C 21,7 C 18,3 C 67 % 1003,7 hPa 0,0 l/m 0 min 0 min 19 W/m 6,4 km/h (2 Bft) 97,83 %
15.08.2022 07:34 22,6 C 21,7 C 18,3 C 67 % 1003,8 hPa 0,0 l/m 0 min 0 min 19 W/m 12,9 km/h (3 Bft) 97,87 %
15.08.2022 07:36 22,6 C 21,7 C 18,3 C 67 % 1003,8 hPa 0,0 l/m 0 min 0 min 20 W/m 6,4 km/h (2 Bft) 97,87 %
15.08.2022 07:38 22,6 C 21,7 C 18,3 C 67 % 1003,8 hPa 0,0 l/m 0 min 0 min 21 W/m 6,4 km/h (2 Bft) 97,87 %
15.08.2022 07:40 22,6 C 21,7 C 18,3 C 67 % 1003,9 hPa 0,0 l/m 0 min 0 min 23 W/m 12,9 km/h (3 Bft) 97,87 %
15.08.2022 07:42 22,6 C 21,7 C 18,3 C 67 % 1004,0 hPa 0,0 l/m 0 min 0 min 23 W/m 12,9 km/h (3 Bft) 93,62 %
15.08.2022 07:44 22,6 C 21,7 C 18,3 C 67 % 1003,9 hPa 0,0 l/m 0 min 0 min 26 W/m 12,9 km/h (3 Bft) 95,65 %
15.08.2022 07:46 22,6 C 21,7 C 18,3 C 67 % 1004,0 hPa 0,0 l/m 0 min 0 min 27 W/m 16,1 km/h (3 Bft) 93,62 %
15.08.2022 07:48 22,6 C 21,7 C 18,3 C 67 % 1004,0 hPa 0,0 l/m 0 min 0 min 31 W/m 19,3 km/h (3 Bft) 93,62 %
15.08.2022 07:50 22,6 C 21,7 C 18,3 C 67 % 1004,0 hPa 0,0 l/m 0 min 0 min 33 W/m 12,9 km/h (3 Bft) 95,74 %
15.08.2022 07:52 22,6 C 21,7 C 18,3 C 67 % 1004,0 hPa 0,0 l/m 0 min 0 min 36 W/m 6,4 km/h (2 Bft) 95,74 %
15.08.2022 07:54 22,7 C 21,7 C 18,3 C 67 % 1004,0 hPa 0,0 l/m 0 min 0 min 40 W/m 6,4 km/h (2 Bft) 95,74 %
15.08.2022 07:56 22,7 C 21,7 C 18,3 C 67 % 1003,9 hPa 0,0 l/m 0 min 0 min 40 W/m 16,1 km/h (3 Bft) 95,65 %
15.08.2022 07:58 22,7 C 21,7 C 18,3 C 68 % 1004,0 hPa 0,0 l/m 0 min 0 min 41 W/m 9,7 km/h (2 Bft) 95,74 %
15.08.2022 08:00 22,7 C 21,7 C 18,3 C 67 % 1003,9 hPa 0,0 l/m 0 min 0 min 42 W/m 16,1 km/h (3 Bft) 93,62 %
15.08.2022 08:02 22,7 C 21,7 C 18,3 C 67 % 1004,0 hPa 0,0 l/m 0 min 0 min 42 W/m 16,1 km/h (3 Bft) 93,62 %
15.08.2022 08:04 22,7 C 21,7 C 18,3 C 68 % 1004,1 hPa 0,0 l/m 0 min 0 min 45 W/m 12,9 km/h (3 Bft) 97,87 %
15.08.2022 08:08 22,7 C 22,2 C 18,3 C 68 % 1004,0 hPa 0,0 l/m 0 min 0 min 48 W/m 12,9 km/h (3 Bft) 95,70 %
15.08.2022 08:10 22,7 C 22,2 C 18,3 C 68 % 1004,0 hPa 0,0 l/m 0 min 0 min 53 W/m 6,4 km/h (2 Bft) 95,74 %
15.08.2022 08:12 22,7 C 22,2 C 18,3 C 68 % 1004,1 hPa 0,0 l/m 0 min 0 min 54 W/m 3,2 km/h (1 Bft) 95,74 %
15.08.2022 08:14 22,7 C 22,2 C 18,3 C 68 % 1004,1 hPa 0,0 l/m 0 min 0 min 57 W/m 6,4 km/h (2 Bft) 95,74 %
15.08.2022 08:16 22,7 C 22,2 C 18,3 C 68 % 1004,0 hPa 0,0 l/m 0 min 0 min 60 W/m 6,4 km/h (2 Bft) 95,74 %
15.08.2022 08:18 22,7 C 22,2 C 18,3 C 68 % 1004,0 hPa 0,0 l/m 0 min 0 min 64 W/m 6,4 km/h (2 Bft) 93,62 %
15.08.2022 08:20 22,8 C 22,2 C 18,3 C 68 % 1004,0 hPa 0,0 l/m 0 min 0 min 69 W/m 9,7 km/h (2 Bft) 93,48 %
15.08.2022 08:22 22,8 C 22,2 C 18,3 C 68 % 1004,1 hPa 0,0 l/m 0 min 0 min 80 W/m 12,9 km/h (3 Bft) 95,74 %
15.08.2022 08:24 22,8 C 22,2 C 18,3 C 68 % 1004,2 hPa 0,0 l/m 0 min 0 min 95 W/m 6,4 km/h (2 Bft) 97,87 %
15.08.2022 08:26 22,8 C 22,2 C 18,3 C 69 % 1004,2 hPa 0,0 l/m 0 min 0 min 107 W/m 12,9 km/h (3 Bft) 100,00 %
15.08.2022 08:28 22,8 C 22,2 C 18,9 C 68 % 1004,2 hPa 0,0 l/m 0 min 0 min 119 W/m 12,9 km/h (3 Bft) 97,87 %
15.08.2022 08:30 22,8 C 22,2 C 18,9 C 68 % 1004,2 hPa 0,0 l/m 0 min 0 min 127 W/m 3,2 km/h (1 Bft) 97,87 %
15.08.2022 08:32 22,9 C 22,2 C 18,9 C 68 % 1004,2 hPa 0,0 l/m 0 min 0 min 134 W/m 9,7 km/h (2 Bft) 97,83 %
15.08.2022 08:34 22,9 C 22,8 C 18,9 C 69 % 1004,2 hPa 0,0 l/m 0 min 0 min 140 W/m 16,1 km/h (3 Bft) 97,87 %
15.08.2022 08:36 22,9 C 22,8 C 18,9 C 68 % 1004,2 hPa 0,0 l/m 0 min 0 min 137 W/m 12,9 km/h (3 Bft) 97,87 %
15.08.2022 08:38 23,0 C 22,8 C 18,9 C 68 % 1004,2 hPa 0,0 l/m 0 min 0 min 141 W/m 12,9 km/h (3 Bft) 97,87 %
15.08.2022 08:40 23,1 C 22,8 C 18,9 C 69 % 1004,2 hPa 0,0 l/m 0 min 0 min 140 W/m 16,1 km/h (3 Bft) 94,29 %
15.08.2022 08:42 23,1 C 22,8 C 18,9 C 68 % 1004,2 hPa 0,0 l/m 0 min 0 min 136 W/m 6,4 km/h (2 Bft) 97,87 %
15.08.2022 08:44 23,1 C 22,8 C 18,9 C 69 % 1004,2 hPa 0,0 l/m 0 min 0 min 132 W/m 3,2 km/h (1 Bft) 97,87 %
15.08.2022 08:46 23,1 C 22,8 C 18,9 C 68 % 1004,2 hPa 0,0 l/m 0 min 0 min 125 W/m 3,2 km/h (1 Bft) 95,74 %
15.08.2022 08:48 23,2 C 22,8 C 18,9 C 69 % 1004,2 hPa 0,0 l/m 0 min 0 min 114 W/m 0,0 km/h (0 Bft) 97,83 %
15.08.2022 08:50 23,2 C 22,8 C 18,9 C 68 % 1004,2 hPa 0,0 l/m 0 min 0 min 102 W/m 16,1 km/h (3 Bft) 97,87 %
15.08.2022 08:52 23,2 C 22,8 C 18,9 C 68 % 1004,2 hPa 0,0 l/m 0 min 0 min 92 W/m 6,4 km/h (2 Bft) 97,87 %
15.08.2022 08:54 23,2 C 22,8 C 18,9 C 69 % 1004,2 hPa 0,0 l/m 0 min 0 min 87 W/m 12,9 km/h (3 Bft) 97,87 %
15.08.2022 08:56 23,2 C 22,8 C 18,9 C 69 % 1004,3 hPa 0,0 l/m 0 min 0 min 85 W/m 12,9 km/h (3 Bft) 95,74 %
15.08.2022 08:58 23,2 C 22,8 C 18,9 C 69 % 1004,3 hPa 0,0 l/m 0 min 0 min 83 W/m 6,4 km/h (2 Bft) 95,74 %
15.08.2022 09:00 23,2 C 22,8 C 18,9 C 69 % 1004,2 hPa 0,0 l/m 0 min 0 min 79 W/m 12,9 km/h (3 Bft) 97,83 %
15.08.2022 09:02 23,2 C 22,2 C 18,9 C 69 % 1004,3 hPa 0,0 l/m 0 min 0 min 75 W/m 9,7 km/h (2 Bft) 100,00 %
15.08.2022 09:04 23,2 C 22,2 C 18,9 C 69 % 1004,3 hPa 0,0 l/m 0 min 0 min 71 W/m 12,9 km/h (3 Bft) 100,00 %
15.08.2022 09:06 23,2 C 22,2 C 18,9 C 69 % 1004,4 hPa 0,0 l/m 0 min 0 min 68 W/m 6,4 km/h (2 Bft) 100,00 %
15.08.2022 09:08 23,2 C 22,2 C 18,9 C 69 % 1004,4 hPa 0,0 l/m 0 min 0 min 65 W/m 16,1 km/h (3 Bft) 100,00 %
15.08.2022 09:10 23,2 C 22,2 C 18,9 C 69 % 1004,4 hPa 0,0 l/m 0 min 0 min 62 W/m 9,7 km/h (2 Bft) 100,00 %
15.08.2022 09:12 23,2 C 22,2 C 18,9 C 69 % 1004,4 hPa 0,0 l/m 0 min 0 min 62 W/m 12,9 km/h (3 Bft) 100,00 %
15.08.2022 09:14 23,1 C 22,2 C 18,9 C 69 % 1004,4 hPa 0,0 l/m 0 min 0 min 64 W/m 12,9 km/h (3 Bft) 100,00 %
15.08.2022 09:16 23,1 C 22,2 C 18,9 C 69 % 1004,4 hPa 0,0 l/m 0 min 0 min 68 W/m 12,9 km/h (3 Bft) 97,87 %
15.08.2022 09:18 23,1 C 22,2 C 18,9 C 70 % 1004,4 hPa 0,0 l/m 0 min 0 min 74 W/m 12,9 km/h (3 Bft) 100,00 %
15.08.2022 09:20 23,1 C 22,2 C 18,9 C 70 % 1004,4 hPa 0,0 l/m 0 min 0 min 77 W/m 6,4 km/h (2 Bft) 100,00 %
15.08.2022 09:22 23,1 C 22,2 C 18,9 C 70 % 1004,4 hPa 0,0 l/m 0 min 0 min 79 W/m 3,2 km/h (1 Bft) 100,00 %
15.08.2022 09:24 23,1 C 22,2 C 18,9 C 70 % 1004,4 hPa 0,0 l/m 0 min 0 min 79 W/m 6,4 km/h (2 Bft) 97,83 %
15.08.2022 09:26 23,0 C 22,2 C 18,9 C 70 % 1004,5 hPa 0,0 l/m 0 min 0 min 79 W/m 19,3 km/h (3 Bft) 100,00 %
15.08.2022 09:28 23,0 C 22,2 C 18,9 C 70 % 1004,5 hPa 0,0 l/m 0 min 0 min 78 W/m 12,9 km/h (3 Bft) 100,00 %
15.08.2022 09:30 23,0 C 22,2 C 18,9 C 70 % 1004,4 hPa 0,0 l/m 0 min 0 min 80 W/m 6,4 km/h (2 Bft) 100,00 %
15.08.2022 09:32 23,0 C 22,2 C 18,9 C 70 % 1004,4 hPa 0,0 l/m 0 min 0 min 83 W/m 9,7 km/h (2 Bft) 97,87 %
15.08.2022 09:34 23,0 C 22,2 C 18,9 C 70 % 1004,4 hPa 0,0 l/m 0 min 0 min 87 W/m 12,9 km/h (3 Bft) 100,00 %
15.08.2022 09:36 23,0 C 22,2 C 18,9 C 70 % 1004,4 hPa 0,0 l/m 0 min 0 min 93 W/m 6,4 km/h (2 Bft) 100,00 %
15.08.2022 09:38 23,1 C 22,2 C 18,9 C 70 % 1004,4 hPa 0,0 l/m 0 min 0 min 97 W/m 6,4 km/h (2 Bft) 100,00 %
15.08.2022 09:40 23,1 C 22,2 C 18,9 C 70 % 1004,4 hPa 0,0 l/m 0 min 0 min 99 W/m 6,4 km/h (2 Bft) 100,00 %
15.08.2022 09:42 23,1 C 22,2 C 18,9 C 70 % 1004,4 hPa 0,0 l/m 0 min 0 min 98 W/m 6,4 km/h (2 Bft) 100,00 %
15.08.2022 09:44 23,1 C 22,2 C 18,9 C 70 % 1004,4 hPa 0,0 l/m 0 min 0 min 97 W/m 3,2 km/h (1 Bft) 100,00 %
15.08.2022 09:46 23,1 C 22,2 C 18,9 C 71 % 1004,4 hPa 0,0 l/m 0 min 0 min 95 W/m 6,4 km/h (2 Bft) 100,00 %
15.08.2022 09:48 23,1 C 22,8 C 18,9 C 71 % 1004,4 hPa 0,0 l/m 0 min 0 min 96 W/m 3,2 km/h (1 Bft) 100,00 %
15.08.2022 09:50 23,1 C 22,8 C 18,9 C 70 % 1004,4 hPa 0,0 l/m 0 min 0 min 99 W/m 3,2 km/h (1 Bft) 100,00 %
15.08.2022 09:52 23,1 C 22,8 C 18,9 C 70 % 1004,4 hPa 0,0 l/m 0 min 0 min 100 W/m 3,2 km/h (1 Bft) 100,00 %
15.08.2022 09:54 23,1 C 22,2 C 18,9 C 70 % 1004,4 hPa 0,0 l/m 0 min 0 min 103 W/m 16,1 km/h (3 Bft) 100,00 %
15.08.2022 09:56 23,1 C 22,2 C 18,9 C 70 % 1004,5 hPa 0,0 l/m 0 min 0 min 107 W/m 3,2 km/h (1 Bft) 97,87 %
15.08.2022 09:58 23,1 C 22,8 C 18,9 C 71 % 1004,4 hPa 0,0 l/m 0 min 0 min 113 W/m 6,4 km/h (2 Bft) 100,00 %
15.08.2022 10:00 23,1 C 22,8 C 18,9 C 71 % 1004,5 hPa 0,0 l/m 0 min 0 min 117 W/m 6,4 km/h (2 Bft) 100,00 %
15.08.2022 10:02 23,1 C 22,8 C 18,9 C 71 % 1004,5 hPa 0,0 l/m 0 min 0 min 116 W/m 6,4 km/h (2 Bft) 100,00 %
15.08.2022 10:04 23,1 C 22,8 C 18,9 C 71 % 1004,5 hPa 0,0 l/m 0 min 0 min 115 W/m 16,1 km/h (3 Bft) 100,00 %
15.08.2022 10:06 23,1 C 22,8 C 18,9 C 71 % 1004,5 hPa 0,0 l/m 0 min 0 min 117 W/m 6,4 km/h (2 Bft) 100,00 %
15.08.2022 10:08 23,1 C 22,8 C 18,9 C 71 % 1004,5 hPa 0,0 l/m 0 min 0 min 119 W/m 0,0 km/h (0 Bft) 100,00 %
15.08.2022 10:10 23,1 C 22,8 C 18,9 C 71 % 1004,5 hPa 0,0 l/m 0 min 0 min 123 W/m 0,0 km/h (0 Bft) 100,00 %
15.08.2022 10:12 23,2 C 22,8 C 18,9 C 71 % 1004,6 hPa 0,0 l/m 0 min 0 min 128 W/m 0,0 km/h (0 Bft) 100,00 %
15.08.2022 10:14 23,2 C 22,8 C 18,9 C 72 % 1004,5 hPa 0,0 l/m 0 min 0 min 133 W/m 0,0 km/h (0 Bft) 100,00 %
15.08.2022 10:16 23,2 C 22,8 C 18,9 C 71 % 1004,6 hPa 0,0 l/m 0 min 0 min 137 W/m 12,9 km/h (3 Bft) 97,87 %
15.08.2022 10:18 23,3 C 22,8 C 18,9 C 72 % 1004,5 hPa 0,0 l/m 0 min 0 min 147 W/m 6,4 km/h (2 Bft) 97,87 %
15.08.2022 10:20 23,3 C 22,8 C 19,4 C 71 % 1004,5 hPa 0,0 l/m 0 min 0 min 164 W/m 6,4 km/h (2 Bft) 97,87 %
15.08.2022 10:22 23,3 C 22,8 C 19,4 C 72 % 1004,5 hPa 0,0 l/m 0 min 0 min 183 W/m 19,3 km/h (3 Bft) 95,65 %
15.08.2022 10:24 23,3 C 22,8 C 19,4 C 71 % 1004,5 hPa 0,0 l/m 0 min 0 min 195 W/m 12,9 km/h (3 Bft) 97,87 %
15.08.2022 10:26 23,3 C 23,3 C 19,4 C 72 % 1004,4 hPa 0,0 l/m 0 min 0 min 200 W/m 6,4 km/h (2 Bft) 91,49 %
15.08.2022 10:28 23,4 C 23,3 C 19,4 C 72 % 1004,5 hPa 0,0 l/m 0 min 0 min 201 W/m 12,9 km/h (3 Bft) 97,87 %
15.08.2022 10:30 23,4 C 23,3 C 19,4 C 72 % 1004,5 hPa 0,0 l/m 0 min 0 min 204 W/m 6,4 km/h (2 Bft) 97,87 %
15.08.2022 10:32 23,4 C 23,3 C 19,4 C 72 % 1004,5 hPa 0,0 l/m 0 min 0 min 206 W/m 6,4 km/h (2 Bft) 93,62 %
15.08.2022 10:34 23,5 C 23,3 C 19,4 C 71 % 1004,6 hPa 0,0 l/m 0 min 0 min 201 W/m 6,4 km/h (2 Bft) 93,48 %
15.08.2022 10:36 23,5 C 23,3 C 19,4 C 71 % 1004,6 hPa 0,0 l/m 0 min 0 min 194 W/m 6,4 km/h (2 Bft) 94,92 %
15.08.2022 10:38 23,6 C 23,3 C 19,4 C 71 % 1004,6 hPa 0,0 l/m 0 min 0 min 187 W/m 6,4 km/h (2 Bft) 94,29 %
15.08.2022 10:40 23,6 C 23,3 C 19,4 C 71 % 1004,6 hPa 0,0 l/m 0 min 0 min 181 W/m 6,4 km/h (2 Bft) 95,74 %
15.08.2022 10:42 23,6 C 23,3 C 19,4 C 71 % 1004,6 hPa 0,0 l/m 0 min 0 min 176 W/m 12,9 km/h (3 Bft) 93,62 %
15.08.2022 10:44 23,6 C 23,3 C 19,4 C 71 % 1004,7 hPa 0,0 l/m 0 min 0 min 170 W/m 9,7 km/h (2 Bft) 93,62 %
15.08.2022 10:46 23,6 C 23,3 C 19,4 C 71 % 1004,7 hPa 0,0 l/m 0 min 0 min 163 W/m 12,9 km/h (3 Bft) 93,62 %
15.08.2022 10:48 23,6 C 22,8 C 19,4 C 71 % 1004,6 hPa 0,0 l/m 0 min 0 min 160 W/m 16,1 km/h (3 Bft) 93,48 %
15.08.2022 10:50 23,6 C 23,3 C 19,4 C 71 % 1004,6 hPa 0,0 l/m 0 min 0 min 161 W/m 6,4 km/h (2 Bft) 93,62 %
15.08.2022 10:52 23,6 C 23,3 C 19,4 C 72 % 1004,7 hPa 0,0 l/m 0 min 0 min 162 W/m 12,9 km/h (3 Bft) 93,62 %
15.08.2022 10:54 23,6 C 23,3 C 19,4 C 72 % 1004,7 hPa 0,0 l/m 0 min 0 min 165 W/m 12,9 km/h (3 Bft) 91,49 %
15.08.2022 10:56 23,6 C 23,3 C 19,4 C 71 % 1004,7 hPa 0,0 l/m 0 min 0 min 169 W/m 9,7 km/h (2 Bft) 93,62 %
15.08.2022 10:58 23,6 C 23,3 C 19,4 C 72 % 1004,7 hPa 0,0 l/m 0 min 0 min 169 W/m 25,7 km/h (4 Bft) 93,48 %
15.08.2022 11:00 23,6 C 22,8 C 19,4 C 72 % 1004,8 hPa 0,0 l/m 0 min 0 min 161 W/m 19,3 km/h (3 Bft) 95,74 %
15.08.2022 11:02 23,5 C 22,8 C 19,4 C 72 % 1004,8 hPa 0,0 l/m 0 min 0 min 152 W/m 12,9 km/h (3 Bft) 95,74 %
15.08.2022 11:04 23,5 C 22,8 C 19,4 C 72 % 1004,8 hPa 0,0 l/m 0 min 0 min 146 W/m 6,4 km/h (2 Bft) 97,87 %
15.08.2022 11:06 23,5 C 22,8 C 19,4 C 72 % 1004,8 hPa 0,0 l/m 0 min 0 min 140 W/m 12,9 km/h (3 Bft) 98,31 %
15.08.2022 11:08 23,6 C 22,8 C 19,4 C 72 % 1004,8 hPa 0,0 l/m 0 min 0 min 133 W/m 3,2 km/h (1 Bft) 97,14 %
15.08.2022 11:10 23,6 C 22,8 C 19,4 C 72 % 1004,8 hPa 0,0 l/m 0 min 0 min 128 W/m 6,4 km/h (2 Bft) 95,74 %
15.08.2022 11:12 23,6 C 22,8 C 19,4 C 72 % 1004,8 hPa 0,0 l/m 0 min 0 min 124 W/m 3,2 km/h (1 Bft) 97,83 %
15.08.2022 11:14 23,6 C 22,8 C 19,4 C 72 % 1004,9 hPa 0,0 l/m 0 min 0 min 115 W/m 6,4 km/h (2 Bft) 97,87 %
15.08.2022 11:16 23,6 C 22,8 C 19,4 C 72 % 1004,9 hPa 0,0 l/m 0 min 0 min 107 W/m 12,9 km/h (3 Bft) 100,00 %
15.08.2022 11:18 23,6 C 22,8 C 19,4 C 72 % 1004,9 hPa 0,0 l/m 0 min 0 min 101 W/m 16,1 km/h (3 Bft) 97,87 %
15.08.2022 11:20 23,5 C 22,8 C 18,9 C 72 % 1004,9 hPa 0,0 l/m 0 min 0 min 94 W/m 6,4 km/h (2 Bft) 97,87 %
15.08.2022 11:22 23,5 C 22,8 C 18,9 C 73 % 1004,9 hPa 0,0 l/m 0 min 0 min 88 W/m 3,2 km/h (1 Bft) 97,83 %
15.08.2022 11:24 23,5 C 22,8 C 18,9 C 73 % 1004,9 hPa 0,0 l/m 0 min 0 min 84 W/m 12,9 km/h (3 Bft) 97,87 %
15.08.2022 11:26 23,5 C 22,8 C 18,9 C 73 % 1004,9 hPa 0,0 l/m 0 min 0 min 83 W/m 6,4 km/h (2 Bft) 95,74 %
15.08.2022 11:28 23,5 C 22,8 C 18,9 C 73 % 1004,9 hPa 0,0 l/m 0 min 0 min 81 W/m 9,7 km/h (2 Bft) 95,74 %
15.08.2022 11:30 23,4 C 22,8 C 18,9 C 73 % 1004,9 hPa 0,0 l/m 0 min 0 min 79 W/m 12,9 km/h (3 Bft) 97,87 %
15.08.2022 11:32 23,4 C 22,8 C 18,9 C 73 % 1004,9 hPa 0,0 l/m 0 min 0 min 80 W/m 9,7 km/h (2 Bft) 97,87 %
15.08.2022 11:34 23,4 C 22,8 C 18,9 C 73 % 1005,0 hPa 0,0 l/m 0 min 0 min 83 W/m 6,4 km/h (2 Bft) 97,83 %
15.08.2022 11:36 23,4 C 22,8 C 18,9 C 73 % 1004,9 hPa 0,0 l/m 0 min 0 min 89 W/m 9,7 km/h (2 Bft) 96,61 %
15.08.2022 11:38 23,4 C 22,8 C 18,9 C 73 % 1004,9 hPa 0,0 l/m 0 min 0 min 98 W/m 9,7 km/h (2 Bft) 100,00 %
15.08.2022 11:40 23,3 C 22,8 C 18,9 C 74 % 1004,9 hPa 0,0 l/m 0 min 0 min 105 W/m 19,3 km/h (3 Bft) 100,00 %
15.08.2022 11:42 23,3 C 22,8 C 18,9 C 74 % 1004,8 hPa 0,0 l/m 0 min 0 min 109 W/m 6,4 km/h (2 Bft) 100,00 %
15.08.2022 11:44 23,3 C 22,8 C 18,9 C 74 % 1004,9 hPa 0,0 l/m 0 min 0 min 107 W/m 6,4 km/h (2 Bft) 97,87 %
15.08.2022 11:46 23,3 C 22,8 C 18,9 C 74 % 1004,8 hPa 0,0 l/m 0 min 0 min 104 W/m 6,4 km/h (2 Bft) 100,00 %
15.08.2022 11:48 23,3 C 22,8 C 18,9 C 74 % 1004,8 hPa 0,0 l/m 0 min 0 min 100 W/m 6,4 km/h (2 Bft) 100,00 %
15.08.2022 11:50 23,2 C 22,2 C 18,9 C 74 % 1004,8 hPa 0,0 l/m 0 min 0 min 104 W/m 12,9 km/h (3 Bft) 100,00 %
15.08.2022 11:52 23,2 C 22,8 C 18,9 C 74 % 1004,8 hPa 0,0 l/m 0 min 0 min 111 W/m 12,9 km/h (3 Bft) 100,00 %
15.08.2022 11:54 23,2 C 22,8 C 18,9 C 74 % 1004,9 hPa 0,0 l/m 0 min 0 min 120 W/m 6,4 km/h (2 Bft) 100,00 %
15.08.2022 11:56 23,2 C 22,8 C 18,9 C 74 % 1004,9 hPa 0,0 l/m 0 min 0 min 128 W/m 12,9 km/h (3 Bft) 100,00 %
15.08.2022 11:58 23,2 C 22,8 C 18,9 C 74 % 1005,0 hPa 0,0 l/m 0 min 0 min 139 W/m 6,4 km/h (2 Bft) 100,00 %
15.08.2022 12:00 23,2 C 22,8 C 18,9 C 75 % 1005,0 hPa 0,0 l/m 0 min 0 min 152 W/m 6,4 km/h (2 Bft) 97,87 %
15.08.2022 12:02 23,2 C 22,8 C 18,9 C 75 % 1005,0 hPa 0,0 l/m 0 min 0 min 170 W/m 6,4 km/h (2 Bft) 100,00 %
15.08.2022 12:04 23,2 C 22,8 C 19,4 C 75 % 1005,0 hPa 0,0 l/m 0 min 0 min 203 W/m 6,4 km/h (2 Bft) 97,87 %
15.08.2022 12:08 23,3 C 23,3 C 19,4 C 75 % 1005,0 hPa 0,0 l/m 0 min 0 min 301 W/m 9,7 km/h (2 Bft) 99,01 %
15.08.2022 12:10 23,4 C 23,3 C 20,0 C 75 % 1005,0 hPa 0,0 l/m 0 min 0 min 298 W/m 12,9 km/h (3 Bft) 100,00 %
15.08.2022 12:12 23,4 C 23,3 C 20,0 C 74 % 1004,9 hPa 0,0 l/m 0 min 0 min 311 W/m 9,7 km/h (2 Bft) 100,00 %
15.08.2022 12:14 23,5 C 23,3 C 20,0 C 74 % 1004,9 hPa 0,0 l/m 0 min 0 min 314 W/m 12,9 km/h (3 Bft) 100,00 %
15.08.2022 12:16 23,6 C 23,9 C 20,0 C 75 % 1005,0 hPa 0,0 l/m 0 min 0 min 286 W/m 12,9 km/h (3 Bft) 100,00 %
15.08.2022 12:18 23,6 C 23,9 C 20,0 C 74 % 1005,0 hPa 0,0 l/m 0 min 0 min 264 W/m 16,1 km/h (3 Bft) 97,83 %
15.08.2022 12:20 23,7 C 23,9 C 20,0 C 74 % 1004,9 hPa 0,0 l/m 0 min 0 min 252 W/m 6,4 km/h (2 Bft) 97,87 %
15.08.2022 12:22 23,7 C 23,3 C 20,0 C 74 % 1004,9 hPa 0,0 l/m 0 min 0 min 246 W/m 9,7 km/h (2 Bft) 100,00 %
15.08.2022 12:24 23,8 C 23,3 C 20,0 C 74 % 1005,0 hPa 0,0 l/m 0 min 0 min 244 W/m 12,9 km/h (3 Bft) 97,87 %
15.08.2022 12:26 23,8 C 23,3 C 20,0 C 74 % 1005,0 hPa 0,0 l/m 0 min 0 min 234 W/m 12,9 km/h (3 Bft) 100,00 %
15.08.2022 12:28 23,8 C 23,3 C 20,0 C 74 % 1005,0 hPa 0,0 l/m 0 min 0 min 221 W/m 9,7 km/h (2 Bft) 97,87 %
15.08.2022 12:30 23,8 C 23,9 C 20,0 C 74 % 1005,1 hPa 0,0 l/m 0 min 0 min 207 W/m 9,7 km/h (2 Bft) 100,00 %
15.08.2022 12:32 23,8 C 23,3 C 20,0 C 74 % 1005,0 hPa 0,0 l/m 0 min 0 min 199 W/m 16,1 km/h (3 Bft) 97,87 %
15.08.2022 12:34 23,8 C 23,3 C 20,0 C 74 % 1005,1 hPa 0,0 l/m 0 min 0 min 195 W/m 19,3 km/h (3 Bft) 95,74 %
15.08.2022 12:36 23,7 C 23,3 C 20,0 C 74 % 1005,0 hPa 0,0 l/m 0 min 0 min 196 W/m 16,1 km/h (3 Bft) 97,87 %
15.08.2022 12:38 23,7 C 23,3 C 20,0 C 74 % 1005,0 hPa 0,0 l/m 0 min 0 min 199 W/m 12,9 km/h (3 Bft) 97,87 %
15.08.2022 12:40 23,7 C 23,3 C 20,0 C 74 % 1005,0 hPa 0,0 l/m 0 min 0 min 200 W/m 12,9 km/h (3 Bft) 97,87 %
15.08.2022 12:42 23,7 C 23,3 C 20,0 C 74 % 1005,0 hPa 0,0 l/m 0 min 0 min 199 W/m 6,4 km/h (2 Bft) 97,83 %
15.08.2022 12:44 23,7 C 23,3 C 20,0 C 74 % 1005,0 hPa 0,0 l/m 0 min 0 min 200 W/m 6,4 km/h (2 Bft) 97,87 %
15.08.2022 12:46 23,7 C 23,3 C 20,0 C 74 % 1005,0 hPa 0,0 l/m 0 min 0 min 196 W/m 6,4 km/h (2 Bft) 97,87 %
15.08.2022 12:48 23,7 C 23,3 C 20,0 C 74 % 1005,0 hPa 0,0 l/m 0 min 0 min 179 W/m 6,4 km/h (2 Bft) 95,74 %
15.08.2022 12:50 23,7 C 23,3 C 20,0 C 75 % 1005,0 hPa 0,0 l/m 0 min 0 min 157 W/m 16,1 km/h (3 Bft) 91,49 %
15.08.2022 12:52 23,7 C 23,3 C 19,4 C 75 % 1005,0 hPa 0,0 l/m 0 min 0 min 137 W/m 19,3 km/h (3 Bft) 95,74 %
15.08.2022 12:54 23,7 C 22,8 C 19,4 C 75 % 1005,1 hPa 0,0 l/m 0 min 0 min 121 W/m 12,9 km/h (3 Bft) 95,65 %
15.08.2022 12:56 23,7 C 22,8 C 19,4 C 75 % 1005,1 hPa 0,0 l/m 0 min 0 min 111 W/m 19,3 km/h (3 Bft) 96,00 %
15.08.2022 12:58 23,6 C 22,8 C 19,4 C 75 % 1005,1 hPa 0,0 l/m 0 min 0 min 105 W/m 6,4 km/h (2 Bft) 93,62 %
15.08.2022 13:00 23,6 C 22,8 C 19,4 C 75 % 1005,1 hPa 0,0 l/m 0 min 0 min 101 W/m 9,7 km/h (2 Bft) 95,74 %
15.08.2022 13:02 23,6 C 22,8 C 19,4 C 75 % 1005,2 hPa 0,0 l/m 0 min 0 min 101 W/m 16,1 km/h (3 Bft) 95,83 %
15.08.2022 13:04 23,6 C 22,8 C 19,4 C 75 % 1005,1 hPa 0,0 l/m 0 min 0 min 104 W/m 12,9 km/h (3 Bft) 95,74 %
15.08.2022 13:06 23,5 C 22,8 C 19,4 C 75 % 1005,2 hPa 0,0 l/m 0 min 0 min 105 W/m 12,9 km/h (3 Bft) 95,65 %
15.08.2022 13:08 23,4 C 22,8 C 19,4 C 76 % 1005,3 hPa 0,0 l/m 0 min 0 min 107 W/m 6,4 km/h (2 Bft) 97,87 %
15.08.2022 13:10 23,4 C 22,8 C 19,4 C 76 % 1005,2 hPa 0,0 l/m 0 min 0 min 107 W/m 9,7 km/h (2 Bft) 97,87 %
15.08.2022 13:12 23,4 C 22,8 C 18,9 C 76 % 1005,2 hPa 0,0 l/m 0 min 0 min 107 W/m 12,9 km/h (3 Bft) 97,87 %
15.08.2022 13:14 23,4 C 22,8 C 18,9 C 76 % 1005,3 hPa 0,0 l/m 0 min 0 min 111 W/m 9,7 km/h (2 Bft) 97,14 %
15.08.2022 13:16 23,4 C 22,8 C 18,9 C 77 % 1005,2 hPa 0,0 l/m 0 min 0 min 115 W/m 6,4 km/h (2 Bft) 97,87 %
15.08.2022 13:18 23,4 C 22,8 C 18,9 C 77 % 1005,3 hPa 0,0 l/m 0 min 0 min 120 W/m 3,2 km/h (1 Bft) 97,87 %
15.08.2022 13:20 23,4 C 22,8 C 18,9 C 77 % 1005,3 hPa 0,0 l/m 0 min 0 min 121 W/m 6,4 km/h (2 Bft) 95,74 %
15.08.2022 13:22 23,4 C 22,8 C 19,4 C 77 % 1005,3 hPa 0,0 l/m 0 min 0 min 121 W/m 6,4 km/h (2 Bft) 97,83 %
15.08.2022 13:24 23,4 C 22,8 C 19,4 C 77 % 1005,3 hPa 0,0 l/m 0 min 0 min 120 W/m 6,4 km/h (2 Bft) 97,87 %
15.08.2022 13:26 23,4 C 22,8 C 19,4 C 77 % 1005,3 hPa 0,0 l/m 0 min 0 min 121 W/m 9,7 km/h (2 Bft) 97,87 %
15.08.2022 13:28 23,4 C 22,8 C 19,4 C 77 % 1005,3 hPa 0,0 l/m 0 min 0 min 124 W/m 9,7 km/h (2 Bft) 97,87 %
15.08.2022 13:30 23,4 C 22,8 C 19,4 C 77 % 1005,3 hPa 0,0 l/m 0 min 0 min 133 W/m 3,2 km/h (1 Bft) 97,87 %
15.08.2022 13:32 23,5 C 23,3 C 19,4 C 77 % 1005,3 hPa 0,0 l/m 0 min 0 min 144 W/m 19,3 km/h (3 Bft) 100,00 %
15.08.2022 13:34 23,5 C 23,3 C 18,9 C 77 % 1005,3 hPa 0,0 l/m 0 min 2 min 159 W/m 16,1 km/h (3 Bft) 100,00 %
15.08.2022 13:36 23,5 C 23,3 C 18,9 C 77 % 1005,3 hPa 0,0 l/m 0 min 2 min 170 W/m 12,9 km/h (3 Bft) 98,31 %
15.08.2022 13:38 23,6 C 23,3 C 19,4 C 77 % 1005,3 hPa 0,0 l/m 0 min 0 min 169 W/m 9,7 km/h (2 Bft) 100,00 %
15.08.2022 13:40 23,6 C 23,3 C 19,4 C 77 % 1005,4 hPa 0,0 l/m 0 min 0 min 158 W/m 12,9 km/h (3 Bft) 100,00 %
15.08.2022 13:42 23,6 C 23,3 C 19,4 C 77 % 1005,3 hPa 0,0 l/m 0 min 0 min 142 W/m 16,1 km/h (3 Bft) 97,87 %
15.08.2022 13:44 23,6 C 22,8 C 19,4 C 77 % 1005,4 hPa 0,0 l/m 0 min 0 min 125 W/m 29,0 km/h (5 Bft) 100,00 %
15.08.2022 13:46 23,5 C 22,8 C 19,4 C 76 % 1005,4 hPa 0,0 l/m 0 min 0 min 110 W/m 19,3 km/h (3 Bft) 100,00 %
15.08.2022 13:48 23,5 C 22,8 C 19,4 C 76 % 1005,4 hPa 0,0 l/m 0 min 0 min 99 W/m 16,1 km/h (3 Bft) 100,00 %
15.08.2022 13:50 23,5 C 22,8 C 19,4 C 76 % 1005,4 hPa 0,0 l/m 0 min 0 min 89 W/m 6,4 km/h (2 Bft) 100,00 %
15.08.2022 13:52 23,5 C 22,8 C 19,4 C 76 % 1005,4 hPa 0,0 l/m 0 min 0 min 80 W/m 16,1 km/h (3 Bft) 97,87 %
15.08.2022 13:54 23,5 C 22,8 C 19,4 C 76 % 1005,5 hPa 0,0 l/m 0 min 0 min 72 W/m 16,1 km/h (3 Bft) 100,00 %
15.08.2022 13:56 23,4 C 22,8 C 18,9 C 76 % 1005,4 hPa 0,0 l/m 0 min 0 min 66 W/m 16,1 km/h (3 Bft) 100,00 %
15.08.2022 13:58 23,4 C 22,8 C 18,9 C 76 % 1005,5 hPa 0,0 l/m 0 min 0 min 65 W/m 16,1 km/h (3 Bft) 100,00 %
15.08.2022 14:00 23,4 C 22,8 C 18,9 C 76 % 1005,4 hPa 0,0 l/m 0 min 0 min 67 W/m 19,3 km/h (3 Bft) 100,00 %
15.08.2022 14:02 23,4 C 22,8 C 18,9 C 76 % 1005,5 hPa 0,0 l/m 0 min 0 min 73 W/m 12,9 km/h (3 Bft) 97,87 %
15.08.2022 14:04 23,4 C 22,8 C 18,3 C 77 % 1005,4 hPa 0,0 l/m 0 min 2 min 82 W/m 9,7 km/h (2 Bft) 97,87 %
15.08.2022 14:06 23,4 C 22,8 C 17,8 C 78 % 1005,4 hPa 0,0 l/m 0 min 2 min 92 W/m 16,1 km/h (3 Bft) 96,55 %
15.08.2022 14:08 23,4 C 22,8 C 17,2 C 79 % 1005,4 hPa 0,0 l/m 0 min 2 min 108 W/m 6,4 km/h (2 Bft) 100,00 %
15.08.2022 14:10 23,4 C 22,2 C 17,2 C 79 % 1005,4 hPa 0,0 l/m 0 min 2 min 119 W/m 9,7 km/h (2 Bft) 95,65 %
15.08.2022 14:12 23,3 C 22,2 C 16,7 C 80 % 1005,3 hPa 0,0 l/m 0 min 2 min 124 W/m 12,9 km/h (3 Bft) 95,74 %
15.08.2022 14:14 23,3 C 22,2 C 16,7 C 80 % 1005,4 hPa 0,0 l/m 0 min 2 min 126 W/m 12,9 km/h (3 Bft) 97,87 %
15.08.2022 14:16 23,2 C 22,2 C 16,7 C 81 % 1005,3 hPa 0,0 l/m 0 min 2 min 127 W/m 6,4 km/h (2 Bft) 97,87 %
15.08.2022 14:18 23,1 C 22,2 C 16,7 C 81 % 1005,3 hPa 0,0 l/m 0 min 0 min 127 W/m 9,7 km/h (2 Bft) 97,87 %
15.08.2022 14:20 23,1 C 22,2 C 16,7 C 82 % 1005,4 hPa 0,0 l/m 0 min 2 min 126 W/m 9,7 km/h (2 Bft) 97,87 %
15.08.2022 14:22 23,0 C 22,2 C 16,7 C 82 % 1005,4 hPa 0,0 l/m 0 min 0 min 124 W/m 12,9 km/h (3 Bft) 95,65 %
15.08.2022 14:24 23,1 C 22,2 C 16,7 C 83 % 1005,4 hPa 0,0 l/m 0 min 0 min 124 W/m 3,2 km/h (1 Bft) 97,87 %
15.08.2022 14:26 23,0 C 22,2 C 16,7 C 83 % 1005,4 hPa 0,0 l/m 0 min 0 min 127 W/m 9,7 km/h (2 Bft) 95,74 %
15.08.2022 14:28 23,0 C 22,2 C 16,7 C 83 % 1005,4 hPa 0,0 l/m 0 min 0 min 133 W/m 3,2 km/h (1 Bft) 97,87 %
15.08.2022 14:30 22,9 C 22,2 C 16,7 C 82 % 1005,4 hPa 0,0 l/m 0 min 0 min 142 W/m 3,2 km/h (1 Bft) 95,74 %
15.08.2022 14:32 22,9 C 22,8 C 17,2 C 83 % 1005,4 hPa 0,0 l/m 0 min 0 min 159 W/m 6,4 km/h (2 Bft) 94,34 %
15.08.2022 14:34 23,0 C 22,8 C 17,2 C 83 % 1005,3 hPa 0,0 l/m 0 min 0 min 198 W/m 9,7 km/h (2 Bft) 95,74 %
15.08.2022 14:36 23,0 C 22,8 C 17,8 C 83 % 1005,4 hPa 0,0 l/m 0 min 0 min 240 W/m 6,4 km/h (2 Bft) 95,74 %
15.08.2022 14:38 23,1 C 23,3 C 18,3 C 84 % 1005,4 hPa 0,0 l/m 0 min 2 min 282 W/m 6,4 km/h (2 Bft) 93,62 %
15.08.2022 14:40 23,1 C 23,3 C 18,3 C 83 % 1005,4 hPa 0,0 l/m 0 min 0 min 314 W/m 6,4 km/h (2 Bft) 95,74 %
15.08.2022 14:42 23,1 C 23,9 C 18,3 C 83 % 1005,4 hPa 0,0 l/m 0 min 0 min 343 W/m 12,9 km/h (3 Bft) 93,48 %
15.08.2022 14:44 23,2 C 23,9 C 18,9 C 82 % 1005,5 hPa 0,0 l/m 0 min 0 min 362 W/m 6,4 km/h (2 Bft) 95,74 %
15.08.2022 14:46 23,2 C 23,9 C 18,9 C 82 % 1005,5 hPa 0,0 l/m 2 min 0 min 396 W/m 16,1 km/h (3 Bft) 95,74 %
15.08.2022 14:48 23,3 C 24,4 C 19,4 C 81 % 1005,4 hPa 0,0 l/m 2 min 0 min 443 W/m 16,1 km/h (3 Bft) 93,62 %
15.08.2022 14:50 23,4 C 26,1 C 20,0 C 81 % 1005,4 hPa 0,0 l/m 2 min 0 min 485 W/m 9,7 km/h (2 Bft) 95,74 %
15.08.2022 14:52 23,6 C 27,2 C 20,6 C 81 % 1005,4 hPa 0,0 l/m 2 min 0 min 485 W/m 12,9 km/h (3 Bft) 95,74 %
15.08.2022 14:54 23,7 C 26,7 C 20,6 C 80 % 1005,4 hPa 0,0 l/m 2 min 0 min 520 W/m 6,4 km/h (2 Bft) 95,65 %
15.08.2022 14:56 23,9 C 27,2 C 20,6 C 79 % 1005,4 hPa 0,0 l/m 2 min 0 min 553 W/m 6,4 km/h (2 Bft) 95,74 %
15.08.2022 14:58 24,1 C 28,3 C 21,1 C 79 % 1005,4 hPa 0,0 l/m 2 min 0 min 575 W/m 6,4 km/h (2 Bft) 100,00 %
15.08.2022 15:00 24,3 C 29,4 C 21,1 C 78 % 1005,4 hPa 0,0 l/m 2 min 0 min 575 W/m 12,9 km/h (3 Bft) 97,87 %
15.08.2022 15:02 24,4 C 28,9 C 21,7 C 77 % 1005,4 hPa 0,0 l/m 2 min 0 min 779 W/m 19,3 km/h (3 Bft) 97,87 %
15.08.2022 15:04 24,6 C 29,4 C 21,7 C 76 % 1005,4 hPa 0,0 l/m 2 min 0 min 874 W/m 9,7 km/h (2 Bft) 97,87 %
15.08.2022 15:06 24,8 C 30,6 C 21,7 C 75 % 1005,3 hPa 0,0 l/m 2 min 0 min 753 W/m 12,9 km/h (3 Bft) 95,65 %
15.08.2022 15:08 25,0 C 30,6 C 21,7 C 75 % 1005,3 hPa 0,0 l/m 2 min 0 min 751 W/m 9,7 km/h (2 Bft) 97,87 %
15.08.2022 15:10 25,2 C 30,0 C 21,7 C 73 % 1005,3 hPa 0,0 l/m 2 min 0 min 749 W/m 16,1 km/h (3 Bft) 100,00 %
15.08.2022 15:12 25,2 C 30,6 C 21,7 C 73 % 1005,3 hPa 0,0 l/m 2 min 0 min 1012 W/m 19,3 km/h (3 Bft) 100,00 %
15.08.2022 15:14 25,4 C 29,4 C 21,7 C 72 % 1005,3 hPa 0,0 l/m 2 min 0 min 847 W/m 22,5 km/h (4 Bft) 97,87 %
15.08.2022 15:16 25,6 C 30,0 C 21,7 C 72 % 1005,3 hPa 0,0 l/m 2 min 0 min 848 W/m 16,1 km/h (3 Bft) 100,00 %
15.08.2022 15:18 25,7 C 30,6 C 21,7 C 72 % 1005,2 hPa 0,0 l/m 2 min 0 min 817 W/m 16,1 km/h (3 Bft) 97,83 %
15.08.2022 15:20 25,8 C 30,0 C 21,7 C 72 % 1005,2 hPa 0,0 l/m 2 min 0 min 793 W/m 16,1 km/h (3 Bft) 100,00 %
15.08.2022 15:22 25,8 C 30,6 C 21,7 C 71 % 1005,2 hPa 0,0 l/m 2 min 0 min 789 W/m 12,9 km/h (3 Bft) 100,00 %
15.08.2022 15:24 25,9 C 29,4 C 21,7 C 71 % 1005,2 hPa 0,0 l/m 2 min 0 min 613 W/m 16,1 km/h (3 Bft) 100,00 %
15.08.2022 15:26 25,9 C 28,3 C 21,7 C 70 % 1005,2 hPa 0,0 l/m 0 min 0 min 333 W/m 25,7 km/h (4 Bft) 97,87 %
15.08.2022 15:28 25,9 C 27,8 C 21,7 C 71 % 1005,4 hPa 0,0 l/m 2 min 0 min 361 W/m 16,1 km/h (3 Bft) 97,83 %
15.08.2022 15:30 25,9 C 27,8 C 21,7 C 71 % 1005,3 hPa 0,0 l/m 2 min 0 min 381 W/m 19,3 km/h (3 Bft) 97,87 %
15.08.2022 15:32 25,9 C 27,8 C 21,7 C 71 % 1005,2 hPa 0,0 l/m 2 min 0 min 393 W/m 9,7 km/h (2 Bft) 97,87 %
15.08.2022 15:34 25,9 C 28,9 C 21,7 C 70 % 1005,3 hPa 0,0 l/m 2 min 0 min 445 W/m 16,1 km/h (3 Bft) 95,74 %
15.08.2022 15:36 25,9 C 29,4 C 21,7 C 70 % 1005,2 hPa 0,0 l/m 2 min 0 min 805 W/m 32,2 km/h (5 Bft) 97,87 %
15.08.2022 15:38 26,0 C 30,0 C 21,7 C 69 % 1005,2 hPa 0,0 l/m 2 min 0 min 834 W/m 19,3 km/h (3 Bft) 97,87 %
15.08.2022 15:40 26,1 C 30,0 C 21,7 C 69 % 1005,2 hPa 0,0 l/m 2 min 0 min 851 W/m 9,7 km/h (2 Bft) 95,74 %
15.08.2022 15:42 26,2 C 30,6 C 21,7 C 69 % 1005,2 hPa 0,0 l/m 2 min 0 min 708 W/m 12,9 km/h (3 Bft) 97,83 %
15.08.2022 15:44 26,3 C 30,6 C 22,2 C 69 % 1005,2 hPa 0,0 l/m 2 min 0 min 823 W/m 16,1 km/h (3 Bft) 97,87 %
15.08.2022 15:46 26,4 C 30,0 C 22,2 C 68 % 1005,2 hPa 0,0 l/m 2 min 0 min 884 W/m 6,4 km/h (2 Bft) 97,87 %
15.08.2022 15:48 26,4 C 30,0 C 22,2 C 68 % 1005,1 hPa 0,0 l/m 2 min 0 min 760 W/m 12,9 km/h (3 Bft) 97,87 %
15.08.2022 15:50 26,6 C 30,6 C 22,2 C 68 % 1005,2 hPa 0,0 l/m 2 min 0 min 647 W/m 12,9 km/h (3 Bft) 97,87 %
15.08.2022 15:52 26,7 C 30,0 C 22,2 C 68 % 1005,2 hPa 0,0 l/m 2 min 0 min 701 W/m 19,3 km/h (3 Bft) 93,62 %
15.08.2022 15:54 26,7 C 29,4 C 22,2 C 67 % 1005,2 hPa 0,0 l/m 2 min 0 min 603 W/m 16,1 km/h (3 Bft) 97,83 %
15.08.2022 15:56 26,7 C 28,3 C 21,7 C 67 % 1005,2 hPa 0,0 l/m 2 min 0 min 559 W/m 16,1 km/h (3 Bft) 97,87 %
15.08.2022 15:58 26,7 C 28,3 C 21,7 C 67 % 1005,2 hPa 0,0 l/m 2 min 0 min 456 W/m 19,3 km/h (3 Bft) 95,74 %
15.08.2022 16:00 26,7 C 27,8 C 21,7 C 67 % 1005,2 hPa 0,0 l/m 2 min 0 min 446 W/m 16,1 km/h (3 Bft) 97,87 %
15.08.2022 16:02 26,7 C 27,8 C 21,7 C 67 % 1005,1 hPa 0,0 l/m 2 min 0 min 465 W/m 16,1 km/h (3 Bft) 97,87 %
15.08.2022 16:04 26,6 C 27,2 C 21,7 C 67 % 1005,2 hPa 0,0 l/m 2 min 0 min 446 W/m 6,4 km/h (2 Bft) 97,87 %
15.08.2022 16:06 26,6 C 27,2 C 21,7 C 68 % 1005,2 hPa 0,0 l/m 2 min 0 min 381 W/m 12,9 km/h (3 Bft) 97,83 %
15.08.2022 16:08 26,6 C 26,7 C 21,7 C 67 % 1005,2 hPa 0,0 l/m 2 min 0 min 347 W/m 9,7 km/h (2 Bft) 97,87 %
15.08.2022 16:10 26,4 C 26,7 C 22,2 C 68 % 1005,2 hPa 0,0 l/m 2 min 0 min 348 W/m 6,4 km/h (2 Bft) 100,00 %
15.08.2022 16:12 26,4 C 26,7 C 21,7 C 68 % 1005,2 hPa 0,0 l/m 2 min 0 min 364 W/m 16,1 km/h (3 Bft) 100,00 %
15.08.2022 16:14 26,4 C 26,7 C 21,7 C 68 % 1005,2 hPa 0,0 l/m 2 min 0 min 424 W/m 6,4 km/h (2 Bft) 100,00 %
15.08.2022 16:16 26,3 C 27,2 C 21,7 C 68 % 1005,2 hPa 0,0 l/m 2 min 0 min 404 W/m 6,4 km/h (2 Bft) 97,87 %
15.08.2022 16:18 26,3 C 26,7 C 21,7 C 68 % 1005,2 hPa 0,0 l/m 2 min 0 min 326 W/m 6,4 km/h (2 Bft) 100,00 %
15.08.2022 16:20 26,3 C 26,1 C 21,7 C 68 % 1005,2 hPa 0,0 l/m 0 min 0 min 283 W/m 22,5 km/h (4 Bft) 97,87 %
15.08.2022 16:22 26,2 C 26,1 C 21,7 C 69 % 1005,2 hPa 0,0 l/m 0 min 0 min 264 W/m 12,9 km/h (3 Bft) 100,00 %
15.08.2022 16:24 26,2 C 26,1 C 21,7 C 68 % 1005,2 hPa 0,0 l/m 0 min 0 min 251 W/m 6,4 km/h (2 Bft) 100,00 %
15.08.2022 16:26 26,1 C 26,1 C 21,7 C 69 % 1005,1 hPa 0,0 l/m 0 min 0 min 241 W/m 6,4 km/h (2 Bft) 100,00 %
15.08.2022 16:28 26,1 C 25,6 C 21,7 C 69 % 1005,2 hPa 0,0 l/m 0 min 0 min 234 W/m 9,7 km/h (2 Bft) 95,74 %
15.08.2022 16:30 26,1 C 26,1 C 21,7 C 69 % 1005,1 hPa 0,0 l/m 0 min 0 min 230 W/m 3,2 km/h (1 Bft) 97,83 %
15.08.2022 16:32 26,1 C 25,6 C 21,7 C 68 % 1005,1 hPa 0,0 l/m 0 min 0 min 232 W/m 6,4 km/h (2 Bft) 97,87 %
15.08.2022 16:34 26,1 C 25,6 C 21,7 C 69 % 1005,1 hPa 0,0 l/m 0 min 0 min 242 W/m 9,7 km/h (2 Bft) 97,87 %
15.08.2022 16:36 26,1 C 26,1 C 21,7 C 69 % 1005,1 hPa 0,0 l/m 0 min 0 min 237 W/m 9,7 km/h (2 Bft) 95,74 %
15.08.2022 16:38 26,1 C 26,1 C 21,7 C 68 % 1005,1 hPa 0,0 l/m 0 min 0 min 245 W/m 3,2 km/h (1 Bft) 97,92 %
15.08.2022 16:40 26,1 C 26,1 C 21,7 C 69 % 1005,1 hPa 0,0 l/m 0 min 0 min 289 W/m 6,4 km/h (2 Bft) 97,83 %
15.08.2022 16:42 26,1 C 26,7 C 21,7 C 69 % 1005,1 hPa 0,0 l/m 2 min 0 min 321 W/m 3,2 km/h (1 Bft) 97,87 %
15.08.2022 16:44 26,1 C 27,2 C 21,7 C 69 % 1005,1 hPa 0,0 l/m 2 min 0 min 333 W/m 3,2 km/h (1 Bft) 97,87 %
15.08.2022 16:46 26,1 C 27,2 C 21,7 C 68 % 1005,0 hPa 0,0 l/m 2 min 0 min 315 W/m 3,2 km/h (1 Bft) 97,87 %
15.08.2022 16:48 26,2 C 27,2 C 21,7 C 68 % 1005,0 hPa 0,0 l/m 2 min 0 min 308 W/m 6,4 km/h (2 Bft) 97,87 %
15.08.2022 16:50 26,2 C 27,2 C 21,7 C 68 % 1005,0 hPa 0,0 l/m 2 min 0 min 324 W/m 9,7 km/h (2 Bft) 97,87 %
15.08.2022 16:52 26,2 C 27,8 C 22,2 C 68 % 1005,0 hPa 0,0 l/m 2 min 0 min 365 W/m 6,4 km/h (2 Bft) 95,65 %
15.08.2022 16:54 26,3 C 27,2 C 22,2 C 68 % 1004,9 hPa 0,0 l/m 2 min 0 min 323 W/m 6,4 km/h (2 Bft) 97,87 %
15.08.2022 16:56 26,2 C 27,2 C 22,2 C 66 % 1004,9 hPa 0,0 l/m 0 min 0 min 236 W/m 16,1 km/h (3 Bft) 95,74 %
15.08.2022 16:58 26,2 C 26,7 C 21,7 C 66 % 1004,9 hPa 0,0 l/m 0 min 0 min 210 W/m 3,2 km/h (1 Bft) 97,87 %
15.08.2022 17:00 26,2 C 26,7 C 21,7 C 66 % 1004,9 hPa 0,0 l/m 0 min 0 min 191 W/m 9,7 km/h (2 Bft) 97,87 %
15.08.2022 17:02 26,2 C 26,1 C 21,7 C 65 % 1004,9 hPa 0,0 l/m 0 min 0 min 172 W/m 6,4 km/h (2 Bft) 100,00 %
15.08.2022 17:04 26,2 C 26,1 C 21,7 C 65 % 1004,9 hPa 0,0 l/m 0 min 0 min 150 W/m 3,2 km/h (1 Bft) 100,00 %
15.08.2022 17:06 26,3 C 25,6 C 21,7 C 65 % 1004,9 hPa 0,0 l/m 0 min 0 min 129 W/m 3,2 km/h (1 Bft) 97,87 %
15.08.2022 17:08 26,2 C 25,6 C 21,7 C 64 % 1004,9 hPa 0,0 l/m 0 min 0 min 121 W/m 9,7 km/h (2 Bft) 100,00 %
15.08.2022 17:10 26,2 C 25,6 C 21,7 C 65 % 1004,8 hPa 0,0 l/m 0 min 0 min 122 W/m 12,9 km/h (3 Bft) 97,87 %
15.08.2022 17:12 26,2 C 25,6 C 21,7 C 66 % 1004,8 hPa 0,0 l/m 0 min 0 min 126 W/m 6,4 km/h (2 Bft) 97,87 %
15.08.2022 17:14 26,2 C 25,6 C 21,7 C 66 % 1004,8 hPa 0,0 l/m 0 min 0 min 127 W/m 12,9 km/h (3 Bft) 97,87 %
15.08.2022 17:16 26,2 C 25,0 C 21,7 C 67 % 1004,8 hPa 0,0 l/m 0 min 0 min 127 W/m 12,9 km/h (3 Bft) 97,83 %
15.08.2022 17:18 26,2 C 25,0 C 21,7 C 67 % 1004,8 hPa 0,0 l/m 0 min 0 min 127 W/m 12,9 km/h (3 Bft) 95,74 %
15.08.2022 17:20 26,1 C 25,0 C 21,7 C 67 % 1004,8 hPa 0,0 l/m 0 min 0 min 129 W/m 9,7 km/h (2 Bft) 95,83 %
15.08.2022 17:22 26,1 C 25,0 C 21,7 C 67 % 1004,8 hPa 0,0 l/m 0 min 0 min 131 W/m 6,4 km/h (2 Bft) 95,74 %
15.08.2022 17:24 26,1 C 25,0 C 21,7 C 67 % 1004,8 hPa 0,0 l/m 0 min 0 min 135 W/m 12,9 km/h (3 Bft) 97,87 %
15.08.2022 17:26 26,0 C 25,0 C 21,7 C 67 % 1004,8 hPa 0,0 l/m 0 min 0 min 139 W/m 12,9 km/h (3 Bft) 95,74 %
15.08.2022 17:28 25,9 C 25,0 C 21,1 C 67 % 1004,8 hPa 0,0 l/m 0 min 0 min 139 W/m 12,9 km/h (3 Bft) 97,87 %
15.08.2022 17:30 25,9 C 25,0 C 21,1 C 67 % 1004,8 hPa 0,0 l/m 0 min 0 min 139 W/m 6,4 km/h (2 Bft) 95,65 %
15.08.2022 17:32 25,9 C 25,0 C 21,1 C 67 % 1004,9 hPa 0,0 l/m 0 min 0 min 141 W/m 12,9 km/h (3 Bft) 97,96 %
15.08.2022 17:34 25,8 C 25,0 C 21,1 C 67 % 1004,8 hPa 0,0 l/m 0 min 0 min 139 W/m 12,9 km/h (3 Bft) 97,87 %
15.08.2022 17:36 25,8 C 25,0 C 21,1 C 67 % 1004,8 hPa 0,0 l/m 0 min 0 min 132 W/m 6,4 km/h (2 Bft) 97,87 %
15.08.2022 17:38 25,8 C 25,0 C 21,1 C 67 % 1004,9 hPa 0,0 l/m 0 min 0 min 124 W/m 16,1 km/h (3 Bft) 97,87 %
15.08.2022 17:40 25,7 C 25,0 C 21,1 C 67 % 1004,9 hPa 0,0 l/m 0 min 0 min 123 W/m 9,7 km/h (2 Bft) 97,83 %
15.08.2022 17:42 25,7 C 25,0 C 21,1 C 67 % 1004,9 hPa 0,0 l/m 0 min 0 min 130 W/m 6,4 km/h (2 Bft) 97,87 %
15.08.2022 17:44 25,7 C 25,0 C 21,1 C 67 % 1004,9 hPa 0,0 l/m 0 min 0 min 144 W/m 6,4 km/h (2 Bft) 97,87 %
15.08.2022 17:46 25,7 C 25,0 C 21,1 C 67 % 1004,9 hPa 0,0 l/m 0 min 0 min 161 W/m 9,7 km/h (2 Bft) 97,87 %
15.08.2022 17:48 25,7 C 25,0 C 21,1 C 67 % 1004,8 hPa 0,0 l/m 0 min 0 min 171 W/m 6,4 km/h (2 Bft) 97,87 %
15.08.2022 17:50 25,7 C 25,6 C 21,1 C 67 % 1004,9 hPa 0,0 l/m 0 min 0 min 181 W/m 6,4 km/h (2 Bft) 95,74 %
15.08.2022 17:52 25,7 C 25,0 C 21,1 C 67 % 1004,9 hPa 0,0 l/m 0 min 0 min 194 W/m 16,1 km/h (3 Bft) 97,83 %
15.08.2022 17:54 25,7 C 25,6 C 21,1 C 67 % 1004,9 hPa 0,0 l/m 0 min 0 min 204 W/m 6,4 km/h (2 Bft) 95,74 %
15.08.2022 17:56 25,7 C 25,0 C 21,1 C 67 % 1004,9 hPa 0,0 l/m 0 min 0 min 206 W/m 16,1 km/h (3 Bft) 95,74 %
15.08.2022 17:58 25,7 C 25,0 C 21,1 C 67 % 1004,9 hPa 0,0 l/m 0 min 0 min 200 W/m 12,9 km/h (3 Bft) 95,74 %
15.08.2022 18:00 25,7 C 26,1 C 21,1 C 68 % 1004,9 hPa 0,0 l/m 2 min 0 min 258 W/m 12,9 km/h (3 Bft) 95,74 %
15.08.2022 18:02 25,7 C 27,2 C 21,7 C 67 % 1004,9 hPa 0,0 l/m 2 min 0 min 436 W/m 12,9 km/h (3 Bft) 95,65 %
15.08.2022 18:04 25,8 C 27,8 C 21,7 C 67 % 1004,9 hPa 0,0 l/m 2 min 0 min 465 W/m 12,9 km/h (3 Bft) 95,74 %
15.08.2022 18:07 25,9 C 27,2 C 21,7 C 66 % 1004,8 hPa 0,0 l/m 3 min 0 min 274 W/m 16,1 km/h (3 Bft) 95,74 %
15.08.2022 18:08 26,0 C 26,7 C 21,7 C 66 % 1004,8 hPa 0,0 l/m 1 min 0 min 304 W/m 16,1 km/h (3 Bft) 95,24 %
15.08.2022 18:10 26,0 C 27,2 C 21,7 C 66 % 1004,8 hPa 0,0 l/m 2 min 0 min 331 W/m 16,1 km/h (3 Bft) 97,87 %
15.08.2022 18:12 26,1 C 28,3 C 22,2 C 66 % 1004,8 hPa 0,0 l/m 2 min 0 min 373 W/m 6,4 km/h (2 Bft) 95,74 %
15.08.2022 18:14 26,2 C 29,4 C 22,2 C 66 % 1004,7 hPa 0,0 l/m 2 min 0 min 496 W/m 9,7 km/h (2 Bft) 95,74 %
15.08.2022 18:16 26,3 C 30,6 C 22,2 C 66 % 1004,8 hPa 0,0 l/m 2 min 0 min 483 W/m 9,7 km/h (2 Bft) 97,87 %
15.08.2022 18:18 26,4 C 31,1 C 22,2 C 65 % 1004,7 hPa 0,0 l/m 2 min 0 min 473 W/m 9,7 km/h (2 Bft) 97,83 %
15.08.2022 18:20 26,6 C 31,1 C 22,2 C 64 % 1004,6 hPa 0,0 l/m 2 min 0 min 458 W/m 6,4 km/h (2 Bft) 97,96 %
15.08.2022 18:22 26,7 C 31,7 C 22,2 C 65 % 1004,6 hPa 0,0 l/m 2 min 0 min 456 W/m 6,4 km/h (2 Bft) 95,74 %
15.08.2022 18:24 26,8 C 30,6 C 22,8 C 64 % 1004,6 hPa 0,0 l/m 2 min 0 min 407 W/m 6,4 km/h (2 Bft) 97,87 %
15.08.2022 18:26 26,9 C 29,4 C 22,2 C 63 % 1004,6 hPa 0,0 l/m 2 min 0 min 216 W/m 6,4 km/h (2 Bft) 97,87 %
15.08.2022 18:28 26,9 C 28,9 C 22,2 C 63 % 1004,6 hPa 0,0 l/m 2 min 0 min 182 W/m 12,9 km/h (3 Bft) 93,62 %
15.08.2022 18:30 26,9 C 27,8 C 22,2 C 63 % 1004,6 hPa 0,0 l/m 0 min 0 min 168 W/m 12,9 km/h (3 Bft) 93,62 %
15.08.2022 18:32 26,9 C 27,2 C 22,2 C 62 % 1004,6 hPa 0,0 l/m 0 min 0 min 155 W/m 12,9 km/h (3 Bft) 95,65 %
15.08.2022 18:34 26,9 C 26,7 C 22,2 C 62 % 1004,6 hPa 0,0 l/m 0 min 0 min 152 W/m 9,7 km/h (2 Bft) 95,74 %
15.08.2022 18:36 26,8 C 26,1 C 21,7 C 61 % 1004,5 hPa 0,0 l/m 0 min 0 min 163 W/m 12,9 km/h (3 Bft) 93,62 %
15.08.2022 18:38 26,7 C 26,7 C 21,7 C 62 % 1004,5 hPa 0,0 l/m 2 min 0 min 222 W/m 12,9 km/h (3 Bft) 95,74 %
15.08.2022 18:40 26,7 C 27,8 C 21,7 C 63 % 1004,5 hPa 0,0 l/m 2 min 0 min 344 W/m 12,9 km/h (3 Bft) 95,74 %
15.08.2022 18:42 26,7 C 28,9 C 21,7 C 62 % 1004,5 hPa 0,0 l/m 2 min 0 min 394 W/m 6,4 km/h (2 Bft) 97,87 %
15.08.2022 18:44 26,7 C 30,0 C 21,7 C 62 % 1004,5 hPa 0,0 l/m 2 min 0 min 382 W/m 9,7 km/h (2 Bft) 95,65 %
15.08.2022 18:46 26,8 C 30,0 C 21,7 C 62 % 1004,5 hPa 0,0 l/m 2 min 0 min 368 W/m 12,9 km/h (3 Bft) 97,87 %
15.08.2022 18:48 26,8 C 30,0 C 21,7 C 62 % 1004,5 hPa 0,0 l/m 2 min 0 min 353 W/m 9,7 km/h (2 Bft) 93,62 %
15.08.2022 18:50 26,8 C 28,3 C 21,7 C 62 % 1004,5 hPa 0,0 l/m 2 min 0 min 346 W/m 6,4 km/h (2 Bft) 97,87 %
15.08.2022 18:52 26,8 C 27,2 C 21,7 C 60 % 1004,5 hPa 0,0 l/m 2 min 0 min 327 W/m 16,1 km/h (3 Bft) 97,87 %
15.08.2022 18:54 26,8 C 26,7 C 21,7 C 61 % 1004,5 hPa 0,0 l/m 2 min 0 min 299 W/m 6,4 km/h (2 Bft) 97,87 %
15.08.2022 18:56 26,8 C 26,7 C 21,7 C 61 % 1004,5 hPa 0,0 l/m 2 min 0 min 184 W/m 6,4 km/h (2 Bft) 97,83 %
15.08.2022 18:58 26,8 C 26,1 C 21,7 C 61 % 1004,5 hPa 0,0 l/m 0 min 0 min 101 W/m 12,9 km/h (3 Bft) 97,87 %
15.08.2022 19:00 26,7 C 26,1 C 21,7 C 61 % 1004,5 hPa 0,0 l/m 0 min 0 min 100 W/m 12,9 km/h (3 Bft) 97,87 %
15.08.2022 19:02 26,7 C 26,1 C 21,7 C 61 % 1004,5 hPa 0,0 l/m 2 min 0 min 261 W/m 9,7 km/h (2 Bft) 97,87 %
15.08.2022 19:04 26,6 C 26,1 C 21,7 C 61 % 1004,5 hPa 0,0 l/m 2 min 0 min 254 W/m 12,9 km/h (3 Bft) 100,00 %
15.08.2022 19:06 26,6 C 26,1 C 21,7 C 62 % 1004,5 hPa 0,0 l/m 2 min 0 min 225 W/m 9,7 km/h (2 Bft) 100,00 %
15.08.2022 19:08 26,6 C 26,1 C 21,7 C 62 % 1004,5 hPa 0,0 l/m 2 min 0 min 137 W/m 6,4 km/h (2 Bft) 100,00 %
15.08.2022 19:10 26,6 C 26,1 C 21,7 C 62 % 1004,5 hPa 0,0 l/m 0 min 0 min 102 W/m 12,9 km/h (3 Bft) 100,00 %
15.08.2022 19:12 26,6 C 26,1 C 21,7 C 62 % 1004,5 hPa 0,0 l/m 0 min 0 min 99 W/m 12,9 km/h (3 Bft) 100,00 %
15.08.2022 19:14 26,5 C 26,1 C 21,7 C 62 % 1004,5 hPa 0,0 l/m 0 min 0 min 98 W/m 9,7 km/h (2 Bft) 100,00 %
15.08.2022 19:16 26,5 C 26,1 C 21,7 C 61 % 1004,5 hPa 0,0 l/m 0 min 0 min 98 W/m 12,9 km/h (3 Bft) 100,00 %
15.08.2022 19:18 26,4 C 25,6 C 21,7 C 62 % 1004,4 hPa 0,0 l/m 0 min 0 min 99 W/m 6,4 km/h (2 Bft) 100,00 %
15.08.2022 19:20 26,4 C 25,6 C 21,7 C 62 % 1004,5 hPa 0,0 l/m 0 min 0 min 104 W/m 6,4 km/h (2 Bft) 100,00 %
15.08.2022 19:22 26,3 C 25,6 C 21,7 C 61 % 1004,5 hPa 0,0 l/m 0 min 0 min 107 W/m 6,4 km/h (2 Bft) 100,00 %
15.08.2022 19:24 26,3 C 25,6 C 21,7 C 62 % 1004,5 hPa 0,0 l/m 0 min 0 min 109 W/m 12,9 km/h (3 Bft) 100,00 %
15.08.2022 19:26 26,3 C 25,6 C 21,7 C 62 % 1004,5 hPa 0,0 l/m 2 min 0 min 109 W/m 6,4 km/h (2 Bft) 100,00 %
15.08.2022 19:28 26,2 C 25,6 C 21,7 C 62 % 1004,5 hPa 0,0 l/m 2 min 0 min 107 W/m 25,7 km/h (4 Bft) 100,00 %
15.08.2022 19:30 26,2 C 25,6 C 21,7 C 63 % 1004,6 hPa 0,0 l/m 2 min 0 min 103 W/m 22,5 km/h (4 Bft) 100,00 %
15.08.2022 19:32 26,1 C 25,6 C 21,1 C 63 % 1004,6 hPa 0,0 l/m 0 min 0 min 97 W/m 12,9 km/h (3 Bft) 100,00 %
15.08.2022 19:34 26,1 C 25,0 C 21,1 C 63 % 1004,6 hPa 0,0 l/m 0 min 0 min 91 W/m 12,9 km/h (3 Bft) 100,00 %
15.08.2022 19:36 26,0 C 25,0 C 21,1 C 63 % 1004,6 hPa 0,0 l/m 0 min 0 min 87 W/m 9,7 km/h (2 Bft) 100,00 %
15.08.2022 19:38 25,9 C 25,0 C 21,1 C 64 % 1004,7 hPa 0,0 l/m 0 min 0 min 77 W/m 16,1 km/h (3 Bft) 100,00 %
15.08.2022 19:40 25,8 C 25,0 C 21,1 C 64 % 1004,6 hPa 0,0 l/m 0 min 0 min 73 W/m 6,4 km/h (2 Bft) 100,00 %
15.08.2022 19:42 25,8 C 25,0 C 21,1 C 64 % 1004,7 hPa 0,0 l/m 0 min 0 min 71 W/m 19,3 km/h (3 Bft) 100,00 %
15.08.2022 19:44 25,7 C 24,4 C 21,1 C 64 % 1004,7 hPa 0,0 l/m 0 min 0 min 67 W/m 12,9 km/h (3 Bft) 100,00 %
15.08.2022 19:46 25,7 C 24,4 C 21,1 C 64 % 1004,8 hPa 0,0 l/m 0 min 0 min 64 W/m 9,7 km/h (2 Bft) 100,00 %
15.08.2022 19:48 25,6 C 24,4 C 20,6 C 64 % 1004,8 hPa 0,0 l/m 0 min 0 min 63 W/m 16,1 km/h (3 Bft) 100,00 %
15.08.2022 19:50 25,5 C 24,4 C 20,6 C 65 % 1004,8 hPa 0,0 l/m 0 min 0 min 62 W/m 16,1 km/h (3 Bft) 100,00 %
15.08.2022 19:52 25,5 C 24,4 C 20,6 C 65 % 1004,9 hPa 0,0 l/m 0 min 0 min 59 W/m 16,1 km/h (3 Bft) 100,00 %
15.08.2022 19:54 25,4 C 24,4 C 20,6 C 65 % 1004,9 hPa 0,0 l/m 0 min 0 min 56 W/m 12,9 km/h (3 Bft) 100,00 %
15.08.2022 19:56 25,3 C 23,9 C 20,6 C 65 % 1005,0 hPa 0,0 l/m 0 min 0 min 54 W/m 6,4 km/h (2 Bft) 100,00 %
15.08.2022 19:58 25,2 C 23,9 C 20,6 C 65 % 1005,0 hPa 0,0 l/m 0 min 0 min 51 W/m 9,7 km/h (2 Bft) 100,00 %
15.08.2022 20:00 25,2 C 23,9 C 20,6 C 65 % 1005,0 hPa 0,0 l/m 0 min 0 min 49 W/m 12,9 km/h (3 Bft) 100,00 %
15.08.2022 20:02 25,2 C 23,9 C 20,6 C 65 % 1005,0 hPa 0,0 l/m 0 min 0 min 48 W/m 3,2 km/h (1 Bft) 100,00 %
15.08.2022 20:04 25,2 C 23,9 C 20,6 C 65 % 1005,1 hPa 0,0 l/m 0 min 0 min 46 W/m 6,4 km/h (2 Bft) 100,00 %
15.08.2022 20:06 25,1 C 23,9 C 20,6 C 65 % 1005,0 hPa 0,0 l/m 0 min 0 min 43 W/m 6,4 km/h (2 Bft) 100,00 %
15.08.2022 20:08 25,1 C 23,9 C 20,6 C 65 % 1005,1 hPa 0,0 l/m 0 min 0 min 40 W/m 9,7 km/h (2 Bft) 100,00 %
15.08.2022 20:10 25,0 C 23,9 C 20,6 C 65 % 1005,1 hPa 0,0 l/m 0 min 0 min 38 W/m 9,7 km/h (2 Bft) 97,87 %
15.08.2022 20:12 24,9 C 23,9 C 20,0 C 66 % 1005,1 hPa 0,0 l/m 0 min 0 min 36 W/m 6,4 km/h (2 Bft) 100,00 %
15.08.2022 20:14 24,9 C 23,9 C 20,0 C 66 % 1005,1 hPa 0,0 l/m 0 min 0 min 33 W/m 6,4 km/h (2 Bft) 97,87 %
15.08.2022 20:16 24,9 C 23,9 C 20,0 C 66 % 1005,1 hPa 0,0 l/m 0 min 0 min 31 W/m 6,4 km/h (2 Bft) 100,00 %
15.08.2022 20:18 24,9 C 23,9 C 20,0 C 66 % 1005,1 hPa 0,0 l/m 0 min 0 min 29 W/m 6,4 km/h (2 Bft) 100,00 %
15.08.2022 20:20 24,8 C 23,3 C 20,0 C 66 % 1005,1 hPa 0,0 l/m 0 min 0 min 27 W/m 12,9 km/h (3 Bft) 97,83 %
15.08.2022 20:22 24,8 C 23,3 C 20,0 C 66 % 1005,1 hPa 0,0 l/m 0 min 0 min 25 W/m 3,2 km/h (1 Bft) 97,87 %
15.08.2022 20:24 24,8 C 23,3 C 20,0 C 66 % 1005,1 hPa 0,0 l/m 0 min 0 min 22 W/m 9,7 km/h (2 Bft) 95,74 %
15.08.2022 20:26 24,7 C 23,3 C 20,0 C 66 % 1005,1 hPa 0,0 l/m 0 min 0 min 19 W/m 9,7 km/h (2 Bft) 100,00 %
15.08.2022 20:28 24,7 C 23,3 C 20,0 C 66 % 1005,1 hPa 0,0 l/m 0 min 0 min 16 W/m 6,4 km/h (2 Bft) 97,87 %
15.08.2022 20:30 24,7 C 23,3 C 20,0 C 66 % 1005,1 hPa 0,0 l/m 0 min 0 min 16 W/m 0,0 km/h (0 Bft) 89,36 %
15.08.2022 20:32 24,7 C 23,3 C 20,0 C 66 % 1005,1 hPa 0,0 l/m 0 min 0 min 14 W/m 6,4 km/h (2 Bft) 95,65 %
15.08.2022 20:34 24,6 C 23,3 C 20,0 C 66 % 1005,1 hPa 0,0 l/m 0 min 0 min 14 W/m 6,4 km/h (2 Bft) 93,62 %
15.08.2022 20:36 24,6 C 23,3 C 20,0 C 66 % 1005,2 hPa 0,0 l/m 0 min 0 min 13 W/m 9,7 km/h (2 Bft) 93,62 %
15.08.2022 20:38 24,6 C 23,3 C 20,0 C 66 % 1005,2 hPa 0,0 l/m 0 min 0 min 12 W/m 6,4 km/h (2 Bft) 93,62 %
15.08.2022 20:40 24,6 C 23,3 C 20,0 C 66 % 1005,2 hPa 0,0 l/m 0 min 0 min 12 W/m 12,9 km/h (3 Bft) 91,49 %
15.08.2022 20:42 24,6 C 23,3 C 20,0 C 66 % 1005,2 hPa 0,0 l/m 0 min 0 min 12 W/m 3,2 km/h (1 Bft) 89,13 %
15.08.2022 20:44 24,5 C 23,3 C 20,0 C 66 % 1005,2 hPa 0,0 l/m 0 min 0 min 12 W/m 6,4 km/h (2 Bft) 93,62 %
15.08.2022 20:46 24,5 C 23,3 C 20,0 C 66 % 1005,2 hPa 0,0 l/m 0 min 0 min 12 W/m 3,2 km/h (1 Bft) 91,49 %
15.08.2022 20:48 24,5 C 23,3 C 20,0 C 66 % 1005,3 hPa 0,0 l/m 0 min 0 min 11 W/m 0,0 km/h (0 Bft) 91,49 %
15.08.2022 20:50 24,5 C 23,3 C 19,4 C 66 % 1005,3 hPa 0,0 l/m 0 min 0 min 8 W/m 3,2 km/h (1 Bft) 93,62 %
15.08.2022 20:52 24,5 C 23,3 C 19,4 C 66 % 1005,4 hPa 0,0 l/m 0 min 0 min 6 W/m 0,0 km/h (0 Bft) 93,62 %
15.08.2022 20:54 24,4 C 23,3 C 19,4 C 66 % 1005,3 hPa 0,0 l/m 0 min 0 min 4 W/m 3,2 km/h (1 Bft) 93,62 %
15.08.2022 20:56 24,4 C 23,3 C 19,4 C 66 % 1005,4 hPa 0,0 l/m 0 min 0 min 0 W/m 0,0 km/h (0 Bft) 93,48 %
15.08.2022 20:58 24,4 C 23,3 C 19,4 C 67 % 1005,5 hPa 0,0 l/m 0 min 0 min 0 W/m 0,0 km/h (0 Bft) 91,49 %
15.08.2022 21:00 24,4 C 23,3 C 19,4 C 66 % 1005,5 hPa 0,0 l/m 0 min 0 min 0 W/m 6,4 km/h (2 Bft) 93,62 %
15.08.2022 21:02 24,3 C 23,3 C 19,4 C 66 % 1005,5 hPa 0,0 l/m 0 min 0 min 0 W/m 3,2 km/h (1 Bft) 93,62 %
15.08.2022 21:04 24,3 C 23,3 C 19,4 C 67 % 1005,6 hPa 0,0 l/m 0 min 0 min 0 W/m 3,2 km/h (1 Bft) 93,62 %
15.08.2022 21:06 24,3 C 23,3 C 19,4 C 66 % 1005,6 hPa 0,0 l/m 0 min 0 min 0 W/m 3,2 km/h (1 Bft) 95,74 %
15.08.2022 21:08 24,3 C 22,8 C 19,4 C 66 % 1005,6 hPa 0,0 l/m 0 min 0 min 0 W/m 6,4 km/h (2 Bft) 95,65 %
15.08.2022 21:10 24,2 C 22,8 C 19,4 C 66 % 1005,6 hPa 0,0 l/m 0 min 0 min 0 W/m 6,4 km/h (2 Bft) 95,74 %
15.08.2022 21:12 24,2 C 22,8 C 19,4 C 66 % 1005,7 hPa 0,0 l/m 0 min 0 min 0 W/m 9,7 km/h (2 Bft) 93,62 %
15.08.2022 21:14 24,2 C 22,8 C 19,4 C 66 % 1005,7 hPa 0,0 l/m 0 min 0 min 0 W/m 3,2 km/h (1 Bft) 97,87 %
15.08.2022 21:16 24,1 C 22,8 C 19,4 C 66 % 1005,8 hPa 0,0 l/m 0 min 0 min 0 W/m 3,2 km/h (1 Bft) 97,87 %
15.08.2022 21:18 24,1 C 22,8 C 19,4 C 66 % 1005,8 hPa 0,0 l/m 0 min 0 min 0 W/m 9,7 km/h (2 Bft) 97,83 %
15.08.2022 21:20 24,1 C 22,8 C 19,4 C 67 % 1005,8 hPa 0,0 l/m 0 min 0 min 0 W/m 6,4 km/h (2 Bft) 97,87 %
15.08.2022 21:22 24,1 C 22,8 C 19,4 C 67 % 1005,9 hPa 0,0 l/m 0 min 0 min 0 W/m 6,4 km/h (2 Bft) 95,74 %
15.08.2022 21:24 24,0 C 22,8 C 19,4 C 67 % 1005,9 hPa 0,0 l/m 0 min 0 min 0 W/m 3,2 km/h (1 Bft) 97,87 %
15.08.2022 21:26 24,0 C 22,8 C 18,9 C 67 % 1005,8 hPa 0,0 l/m 0 min 0 min 0 W/m 9,7 km/h (2 Bft) 100,00 %
15.08.2022 21:28 23,9 C 22,8 C 18,9 C 67 % 1005,9 hPa 0,0 l/m 0 min 0 min 0 W/m 3,2 km/h (1 Bft) 100,00 %
15.08.2022 21:30 23,9 C 22,8 C 18,9 C 67 % 1005,9 hPa 0,0 l/m 0 min 0 min 0 W/m 3,2 km/h (1 Bft) 100,00 %
15.08.2022 21:32 23,9 C 22,8 C 18,9 C 67 % 1006,0 hPa 0,0 l/m 0 min 0 min 0 W/m 3,2 km/h (1 Bft) 100,00 %
15.08.2022 21:34 23,9 C 22,8 C 18,9 C 68 % 1005,9 hPa 0,0 l/m 0 min 0 min 0 W/m 6,4 km/h (2 Bft) 100,00 %
15.08.2022 21:36 23,9 C 22,8 C 18,9 C 68 % 1006,0 hPa 0,0 l/m 0 min 0 min 0 W/m 6,4 km/h (2 Bft) 100,00 %
15.08.2022 21:40 23,8 C 22,8 C 18,9 C 68 % 1006,1 hPa 0,0 l/m 0 min 0 min 0 W/m 6,4 km/h (2 Bft) 100,00 %
15.08.2022 21:44 23,7 C 22,2 C 18,9 C 68 % 1006,1 hPa 0,0 l/m 0 min 0 min 0 W/m 3,2 km/h (1 Bft) 100,00 %
15.08.2022 21:46 23,7 C 22,2 C 18,9 C 69 % 1006,1 hPa 0,0 l/m 0 min 0 min 0 W/m 3,2 km/h (1 Bft) 100,00 %
15.08.2022 21:48 23,7 C 22,2 C 18,9 C 69 % 1006,1 hPa 0,0 l/m 0 min 0 min 0 W/m 0,0 km/h (0 Bft) 100,00 %
15.08.2022 21:50 23,6 C 22,2 C 18,9 C 69 % 1006,1 hPa 0,0 l/m 0 min 0 min 0 W/m 0,0 km/h (0 Bft) 97,87 %
15.08.2022 21:52 23,6 C 22,2 C 18,9 C 69 % 1006,1 hPa 0,0 l/m 0 min 0 min 0 W/m 6,4 km/h (2 Bft) 100,00 %
15.08.2022 21:54 23,6 C 22,2 C 18,9 C 69 % 1006,1 hPa 0,0 l/m 0 min 0 min 0 W/m 3,2 km/h (1 Bft) 100,00 %
15.08.2022 21:56 23,5 C 22,2 C 18,9 C 69 % 1006,1 hPa 0,0 l/m 0 min 0 min 0 W/m 3,2 km/h (1 Bft) 100,00 %
15.08.2022 21:58 23,5 C 22,2 C 18,9 C 69 % 1006,1 hPa 0,0 l/m 0 min 0 min 0 W/m 6,4 km/h (2 Bft) 100,00 %
15.08.2022 22:00 23,4 C 22,2 C 18,9 C 69 % 1006,1 hPa 0,0 l/m 0 min 0 min 0 W/m 3,2 km/h (1 Bft) 100,00 %
15.08.2022 22:02 23,4 C 22,2 C 18,9 C 69 % 1006,2 hPa 0,0 l/m 0 min 0 min 0 W/m 3,2 km/h (1 Bft) 100,00 %
15.08.2022 22:04 23,4 C 22,2 C 18,3 C 70 % 1006,1 hPa 0,0 l/m 0 min 0 min 0 W/m 3,2 km/h (1 Bft) 100,00 %
15.08.2022 22:06 23,4 C 22,2 C 18,3 C 70 % 1006,1 hPa 0,0 l/m 0 min 0 min 0 W/m 3,2 km/h (1 Bft) 100,00 %
15.08.2022 22:08 23,3 C 22,2 C 18,3 C 70 % 1006,1 hPa 0,0 l/m 0 min 0 min 0 W/m 0,0 km/h (0 Bft) 100,00 %
15.08.2022 22:10 23,3 C 22,2 C 18,3 C 70 % 1006,1 hPa 0,0 l/m 0 min 0 min 0 W/m 0,0 km/h (0 Bft) 100,00 %
15.08.2022 22:12 23,3 C 22,2 C 18,3 C 70 % 1006,1 hPa 0,0 l/m 0 min 0 min 0 W/m 0,0 km/h (0 Bft) 97,87 %
15.08.2022 22:14 23,3 C 22,2 C 18,3 C 70 % 1006,1 hPa 0,0 l/m 0 min 0 min 0 W/m 0,0 km/h (0 Bft) 100,00 %
15.08.2022 22:16 23,2 C 22,2 C 18,3 C 70 % 1006,1 hPa 0,0 l/m 0 min 0 min 0 W/m 0,0 km/h (0 Bft) 100,00 %
15.08.2022 22:18 23,2 C 22,2 C 18,3 C 70 % 1006,1 hPa 0,0 l/m 0 min 0 min 0 W/m 3,2 km/h (1 Bft) 95,74 %
15.08.2022 22:20 23,2 C 21,7 C 18,3 C 71 % 1006,1 hPa 0,0 l/m 0 min 0 min 0 W/m 3,2 km/h (1 Bft) 100,00 %
15.08.2022 22:22 23,2 C 21,7 C 18,3 C 71 % 1006,1 hPa 0,0 l/m 0 min 0 min 0 W/m 3,2 km/h (1 Bft) 100,00 %
15.08.2022 22:24 23,1 C 21,7 C 18,3 C 71 % 1006,1 hPa 0,0 l/m 0 min 0 min 0 W/m 0,0 km/h (0 Bft) 95,74 %
15.08.2022 22:26 23,1 C 21,7 C 18,3 C 71 % 1006,2 hPa 0,0 l/m 0 min 0 min 0 W/m 3,2 km/h (1 Bft) 97,87 %
15.08.2022 22:28 23,1 C 21,7 C 18,3 C 71 % 1006,2 hPa 0,0 l/m 0 min 0 min 0 W/m 0,0 km/h (0 Bft) 97,87 %
15.08.2022 22:30 23,1 C 21,7 C 18,3 C 71 % 1006,1 hPa 0,0 l/m 0 min 0 min 0 W/m 0,0 km/h (0 Bft) 97,87 %
15.08.2022 22:32 23,1 C 21,7 C 18,3 C 71 % 1006,2 hPa 0,0 l/m 0 min 0 min 0 W/m 3,2 km/h (1 Bft) 97,83 %
15.08.2022 22:34 23,0 C 21,7 C 18,3 C 71 % 1006,2 hPa 0,0 l/m 0 min 0 min 0 W/m 3,2 km/h (1 Bft) 97,87 %
15.08.2022 22:36 23,0 C 21,7 C 18,3 C 71 % 1006,1 hPa 0,0 l/m 0 min 0 min 0 W/m 3,2 km/h (1 Bft) 97,87 %
15.08.2022 22:38 22,9 C 21,7 C 18,3 C 71 % 1006,1 hPa 0,0 l/m 0 min 0 min 0 W/m 3,2 km/h (1 Bft) 97,87 %
15.08.2022 22:40 22,9 C 21,7 C 18,3 C 71 % 1006,1 hPa 0,0 l/m 0 min 0 min 0 W/m 3,2 km/h (1 Bft) 97,87 %
15.08.2022 22:42 22,9 C 21,7 C 18,3 C 71 % 1006,1 hPa 0,0 l/m 0 min 0 min 0 W/m 3,2 km/h (1 Bft) 97,87 %
15.08.2022 22:44 22,8 C 21,7 C 18,3 C 72 % 1006,1 hPa 0,0 l/m 0 min 0 min 0 W/m 0,0 km/h (0 Bft) 97,83 %
15.08.2022 22:46 22,8 C 21,7 C 17,8 C 72 % 1006,1 hPa 0,0 l/m 0 min 0 min 0 W/m 0,0 km/h (0 Bft) 97,87 %
15.08.2022 22:48 22,8 C 21,7 C 17,8 C 72 % 1006,1 hPa 0,0 l/m 0 min 0 min 0 W/m 3,2 km/h (1 Bft) 97,87 %
15.08.2022 22:50 22,8 C 21,1 C 18,3 C 72 % 1006,1 hPa 0,0 l/m 0 min 0 min 0 W/m 3,2 km/h (1 Bft) 95,74 %
15.08.2022 22:52 22,8 C 21,7 C 18,3 C 72 % 1006,1 hPa 0,0 l/m 0 min 0 min 0 W/m 0,0 km/h (0 Bft) 97,87 %
15.08.2022 22:54 22,7 C 21,7 C 18,3 C 72 % 1006,2 hPa 0,0 l/m 0 min 0 min 0 W/m 0,0 km/h (0 Bft) 97,87 %
15.08.2022 22:56 22,7 C 21,7 C 17,8 C 72 % 1006,2 hPa 0,0 l/m 0 min 0 min 0 W/m 0,0 km/h (0 Bft) 97,83 %
15.08.2022 22:58 22,7 C 21,7 C 18,3 C 72 % 1006,2 hPa 0,0 l/m 0 min 0 min 0 W/m 3,2 km/h (1 Bft) 100,00 %
15.08.2022 23:00 22,7 C 21,1 C 17,8 C 72 % 1006,2 hPa 0,0 l/m 0 min 0 min 0 W/m 3,2 km/h (1 Bft) 100,00 %
15.08.2022 23:02 22,7 C 21,1 C 18,3 C 72 % 1006,2 hPa 0,0 l/m 0 min 0 min 0 W/m 3,2 km/h (1 Bft) 100,00 %
15.08.2022 23:04 22,7 C 21,1 C 18,3 C 72 % 1006,2 hPa 0,0 l/m 0 min 0 min 0 W/m 3,2 km/h (1 Bft) 100,00 %
15.08.2022 23:06 22,6 C 21,1 C 18,3 C 73 % 1006,3 hPa 0,0 l/m 0 min 0 min 0 W/m 3,2 km/h (1 Bft) 100,00 %
15.08.2022 23:08 22,6 C 21,1 C 18,3 C 72 % 1006,3 hPa 0,0 l/m 0 min 0 min 0 W/m 0,0 km/h (0 Bft) 95,65 %
15.08.2022 23:10 22,6 C 21,7 C 18,3 C 73 % 1006,3 hPa 0,0 l/m 0 min 0 min 0 W/m 3,2 km/h (1 Bft) 97,87 %
15.08.2022 23:12 22,6 C 21,1 C 18,3 C 73 % 1006,3 hPa 0,0 l/m 0 min 0 min 0 W/m 3,2 km/h (1 Bft) 97,87 %
15.08.2022 23:14 22,6 C 21,1 C 18,3 C 73 % 1006,3 hPa 0,0 l/m 0 min 0 min 0 W/m 3,2 km/h (1 Bft) 97,87 %
15.08.2022 23:16 22,6 C 21,1 C 18,3 C 73 % 1006,4 hPa 0,0 l/m 0 min 0 min 0 W/m 3,2 km/h (1 Bft) 95,74 %
15.08.2022 23:18 22,6 C 21,1 C 18,3 C 73 % 1006,3 hPa 0,0 l/m 0 min 0 min 0 W/m 3,2 km/h (1 Bft) 95,74 %
15.08.2022 23:20 22,5 C 21,1 C 18,3 C 73 % 1006,4 hPa 0,0 l/m 0 min 0 min 0 W/m 3,2 km/h (1 Bft) 95,65 %
15.08.2022 23:22 22,5 C 21,1 C 17,8 C 73 % 1006,4 hPa 0,0 l/m 0 min 0 min 0 W/m 6,4 km/h (2 Bft) 97,87 %
15.08.2022 23:24 22,4 C 21,1 C 17,8 C 73 % 1006,4 hPa 0,0 l/m 0 min 0 min 0 W/m 6,4 km/h (2 Bft) 95,74 %
15.08.2022 23:26 22,4 C 21,1 C 17,8 C 73 % 1006,4 hPa 0,0 l/m 0 min 0 min 0 W/m 3,2 km/h (1 Bft) 97,87 %
15.08.2022 23:28 22,4 C 21,1 C 17,8 C 74 % 1006,4 hPa 0,0 l/m 0 min 0 min 0 W/m 3,2 km/h (1 Bft) 97,87 %
15.08.2022 23:30 22,4 C 21,1 C 17,8 C 74 % 1006,3 hPa 0,0 l/m 0 min 0 min 0 W/m 6,4 km/h (2 Bft) 97,87 %
15.08.2022 23:32 22,4 C 21,1 C 17,8 C 74 % 1006,3 hPa 0,0 l/m 0 min 0 min 0 W/m 3,2 km/h (1 Bft) 95,65 %
15.08.2022 23:34 22,4 C 21,1 C 17,8 C 74 % 1006,4 hPa 0,0 l/m 0 min 0 min 0 W/m 3,2 km/h (1 Bft) 95,74 %
15.08.2022 23:36 22,3 C 21,1 C 17,8 C 74 % 1006,3 hPa 0,0 l/m 0 min 0 min 0 W/m 3,2 km/h (1 Bft) 95,74 %
15.08.2022 23:38 22,3 C 21,1 C 17,8 C 74 % 1006,3 hPa 0,0 l/m 0 min 0 min 0 W/m 3,2 km/h (1 Bft) 91,49 %
15.08.2022 23:40 22,3 C 21,1 C 17,8 C 74 % 1006,3 hPa 0,0 l/m 0 min 0 min 0 W/m 3,2 km/h (1 Bft) 95,74 %
15.08.2022 23:42 22,3 C 21,1 C 17,8 C 74 % 1006,4 hPa 0,0 l/m 0 min 0 min 0 W/m 6,4 km/h (2 Bft) 95,74 %
15.08.2022 23:44 22,3 C 21,1 C 17,8 C 74 % 1006,3 hPa 0,0 l/m 0 min 0 min 0 W/m 6,4 km/h (2 Bft) 95,65 %
15.08.2022 23:46 22,2 C 21,1 C 17,8 C 74 % 1006,4 hPa 0,0 l/m 0 min 0 min 0 W/m 3,2 km/h (1 Bft) 95,74 %
15.08.2022 23:48 22,2 C 21,1 C 17,8 C 75 % 1006,4 hPa 0,0 l/m 0 min 0 min 0 W/m 6,4 km/h (2 Bft) 95,74 %
15.08.2022 23:50 22,2 C 21,1 C 17,8 C 75 % 1006,4 hPa 0,0 l/m 0 min 0 min 0 W/m 3,2 km/h (1 Bft) 95,74 %
15.08.2022 23:52 22,2 C 21,1 C 17,8 C 75 % 1006,4 hPa 0,0 l/m 0 min 0 min 0 W/m 3,2 km/h (1 Bft) 93,62 %
15.08.2022 23:54 22,1 C 21,1 C 17,8 C 75 % 1006,4 hPa 0,0 l/m 0 min 0 min 0 W/m 3,2 km/h (1 Bft) 91,49 %
15.08.2022 23:56 22,1 C 21,1 C 17,8 C 75 % 1006,4 hPa 0,0 l/m 0 min 0 min 0 W/m 3,2 km/h (1 Bft) 97,83 %
15.08.2022 23:58 22,1 C 21,1 C 17,8 C 75 % 1006,5 hPa 0,0 l/m 0 min 0 min 0 W/m 3,2 km/h (1 Bft) 100,00 %
_ Min-Zeit 06:02 01:02 14:12 18:52 02:08 - - - - 00:00 20:42
Minimum _ 22,1 C 21,1 C 16,7 C 60 % 1003,3 hPa - - - - 0,0 km/h (0 Bft) 89,13 %
_ Max-Zeit 18:26 18:22 18:24 14:38 23:58 00:00 18:07 13:34 15:12 15:36 00:18
Maximum _ 26,9 C 31,7 C 22,8 C 84 % 1006,5 hPa 0,0 l/m 3 min 2 min 1012 W/m 32,2 km/h
S-SW (5 Bft)
100,00 %
Durchschnitt _ 23,7 C 23,2 C 19,2 C 69 % 1004,6 hPa #0,0 l/m #2:50 h #22 min. 183 W/m 7,6 km/h (2 Bft) 97,66 %
© 2022 W. Hausmann